Observation data for Fort Lewis CO on 05/25/2019      Previous  Date  Next       Current Mesonet Observations  Soil Data  Daily Summary Page  Observations in Plain Language
KFL1 250500Z 02004KT 04/M04 A3013 RMK A01 T00351040  RH  058%=      5-min Rain = 0
KFL1 250501Z 02004KT 04/M04 A3013 RMK A01 T00351039  RH  058%=      5-min Rain = 0
KFL1 250502Z 02004KT 04/M04 A3013 RMK A01 T00351039  RH  058%=      5-min Rain = 0
KFL1 250503Z 02004KT 04/M04 A3013 RMK A01 T00361039  RH  058%=      5-min Rain = 0
KFL1 250504Z 01004KT 04/M04 A3013 RMK A01 T00371039  RH  057%=      5-min Rain = 0
KFL1 250505Z 01005KT 04/M04 A3013 RMK A01 T00371041  RH  057%=      5-min Rain = 0
KFL1 250506Z 01005KT 04/M04 A3013 RMK A01 T00381040  RH  056%=      5-min Rain = 0
KFL1 250507Z 00005KT 04/M04 A3013 RMK A01 T00391041  RH  056%=      5-min Rain = 0
KFL1 250508Z 00006KT 04/M04 A3013 RMK A01 T00401042  RH  055%=      5-min Rain = 0
KFL1 250509Z 36006KT 04/M04 A3013 RMK A01 T00421041  RH  055%=      5-min Rain = 0
KFL1 250510Z 00007KT 04/M04 A3013 RMK A01 T00441040  RH  054%=      5-min Rain = 0
KFL1 250511Z 36007KT 04/M03 A3013 RMK A01 T00441032  RH  058%=      5-min Rain = 0
KFL1 250512Z 36007KT 04/M03 A3013 RMK A01 T00401033  RH  059%=      5-min Rain = 0
KFL1 250513Z 35007KT 04/M03 A3013 RMK A01 T00391032  RH  060%=      5-min Rain = 0
KFL1 250514Z 35006KT 04/M03 A3013 RMK A01 T00351032  RH  062%=      5-min Rain = 0
KFL1 250515Z 35007KT 03/M04 A3013 RMK A01 T00331036  RH  061%=      5-min Rain = 0
KFL1 250516Z 34006KT 03/M04 A3013 RMK A01 T00331036  RH  061%=      5-min Rain = 0
KFL1 250517Z 34006KT 03/M03 A3013 RMK A01 T00321030  RH  063%=      5-min Rain = 0
KFL1 250518Z 34006KT 03/M03 A3013 RMK A01 T00301032  RH  063%=      5-min Rain = 0
KFL1 250519Z 34006KT 03/M04 A3013 RMK A01 T00331038  RH  060%=      5-min Rain = 0
KFL1 250520Z 35007KT 04/M04 A3013 RMK A01 T00351035  RH  060%=      5-min Rain = 0
KFL1 250521Z 35007KT 04/M04 A3013 RMK A01 T00361037  RH  059%=      5-min Rain = 0
KFL1 250522Z 35008KT 04/M04 A3013 RMK A01 T00371039  RH  057%=      5-min Rain = 0
KFL1 250523Z 35009KT 04/M04 A3013 RMK A01 T00391041  RH  056%=      5-min Rain = 0
KFL1 250524Z 35008KT 04/M04 A3013 RMK A01 T00411040  RH  056%=      5-min Rain = 0
KFL1 250525Z 35008KT 04/M05 A3013 RMK A01 T00431046  RH  052%=      5-min Rain = 0
KFL1 250526Z 35008KT 05/M05 A3013 RMK A01 T00471047  RH  051%=      5-min Rain = 0
KFL1 250527Z 35008KT 05/M05 A3013 RMK A01 T00491046  RH  050%=      5-min Rain = 0
KFL1 250528Z 35007KT 05/M04 A3013 RMK A01 T00491042  RH  052%=      5-min Rain = 0
KFL1 250529Z 35008KT 05/M04 A3013 RMK A01 T00471043  RH  052%=      5-min Rain = 0
KFL1 250530Z 35008KT 05/M04 A3013 RMK A01 T00461043  RH  053%=      5-min Rain = 0
KFL1 250531Z 35008KT 05/M04 A3013 RMK A01 T00461044  RH  052%=      5-min Rain = 0
KFL1 250532Z 00008KT 05/M04 A3013 RMK A01 T00451043  RH  053%=      5-min Rain = 0
KFL1 250533Z 36008KT 04/M04 A3013 RMK A01 T00431041  RH  054%=      5-min Rain = 0
KFL1 250534Z 36007KT 04/M04 A3013 RMK A01 T00421042  RH  054%=      5-min Rain = 0
KFL1 250535Z 36007KT 04/M04 A3013 RMK A01 T00411038  RH  056%=      5-min Rain = 0
KFL1 250536Z 00007KT 04/M04 A3013 RMK A01 T00381038  RH  058%=      5-min Rain = 0
KFL1 250537Z 00007KT 04/M04 A3013 RMK A01 T00361039  RH  058%=      5-min Rain = 0
KFL1 250538Z 36007KT 04/M04 A3013 RMK A01 T00361037  RH  059%=      5-min Rain = 0
KFL1 250539Z 36006KT 03/M03 A3013 RMK A01 T00341033  RH  062%=      5-min Rain = 0
KFL1 250540Z 36006KT 03/M04 A3013 RMK A01 T00321036  RH  061%=      5-min Rain = 0
KFL1 250541Z 35007KT 03/M04 A3013 RMK A01 T00311035  RH  062%=      5-min Rain = 0
KFL1 250542Z 35006KT 03/M04 A3013 RMK A01 T00301036  RH  062%=      5-min Rain = 0
KFL1 250543Z 36005KT 03/M04 A3013 RMK A01 T00291035  RH  062%=      5-min Rain = 0
KFL1 250544Z 00005KT 03/M04 A3013 RMK A01 T00291039  RH  061%=      5-min Rain = 0
KFL1 250545Z 01005KT 03/M04 A3013 RMK A01 T00321042  RH  058%=      5-min Rain = 0
KFL1 250546Z 01005KT 03/M04 A3013 RMK A01 T00341041  RH  058%=      5-min Rain = 0
KFL1 250547Z 01005KT 03/M04 A3013 RMK A01 T00341039  RH  059%=      5-min Rain = 0
KFL1 250548Z 01006KT 03/M04 A3013 RMK A01 T00341041  RH  058%=      5-min Rain = 0
KFL1 250549Z 00007KT 04/M04 A3012 RMK A01 T00351040  RH  058%=      5-min Rain = 0
KFL1 250550Z 00007KT 03/M04 A3012 RMK A01 T00331036  RH  061%=      5-min Rain = 0
KFL1 250551Z 00007KT 03/M04 A3012 RMK A01 T00271035  RH  064%=      5-min Rain = 0
KFL1 250552Z 00007KT 03/M04 A3012 RMK A01 T00261036  RH  064%=      5-min Rain = 0
KFL1 250553Z 00007KT 03/M04 A3012 RMK A01 T00251039  RH  063%=      5-min Rain = 0
KFL1 250554Z 01007KT 02/M03 A3012 RMK A01 T00231034  RH  066%=      5-min Rain = 0
KFL1 250555Z 00008KT 02/M04 A3012 RMK A01 T00201035  RH  067%=      5-min Rain = 0
KFL1 250556Z 01008KT 02/M03 A3012 RMK A01 T00211034  RH  067%=      5-min Rain = 0
KFL1 250557Z 00008KT 02/M03 A3012 RMK A01 T00211034  RH  067%=      5-min Rain = 0
KFL1 250558Z 00008KT 02/M04 A3012 RMK A01 T00201035  RH  067%=      5-min Rain = 0
KFL1 250559Z 00008KT 02/M04 A3012 RMK A01 T00221036  RH  065%=      5-min Rain = 0
KFL1 250600Z 01008KT 02/M04 A3012 RMK A01 T00241036  RH  064%=      5-min Rain = 0
KFL1 250601Z 01008KT 02/M04 A3012 RMK A01 T00241038  RH  063%=      5-min Rain = 0
KFL1 250602Z 01008KT 03/M04 A3012 RMK A01 T00251038  RH  063%=      5-min Rain = 0
KFL1 250603Z 01008KT 03/M04 A3012 RMK A01 T00261036  RH  064%=      5-min Rain = 0
KFL1 250604Z 00008KT 03/M04 A3012 RMK A01 T00261035  RH  064%=      5-min Rain = 0
KFL1 250605Z 01008KT 03/M03 A3012 RMK A01 T00261033  RH  065%=      5-min Rain = 0
KFL1 250606Z 00008KT 03/M03 A3012 RMK A01 T00251033  RH  065%=      5-min Rain = 0
KFL1 250607Z 01008KT 02/M03 A3012 RMK A01 T00241034  RH  066%=      5-min Rain = 0
KFL1 250608Z 01008KT 02/M04 A3012 RMK A01 T00231036  RH  065%=      5-min Rain = 0
KFL1 250609Z 01008KT 03/M04 A3012 RMK A01 T00251038  RH  063%=      5-min Rain = 0
KFL1 250610Z 02008KT 03/M04 A3012 RMK A01 T00281041  RH  060%=      5-min Rain = 0
KFL1 250611Z 03008KT 03/M04 A3012 RMK A01 T00331041  RH  058%=      5-min Rain = 0
KFL1 250612Z 03007KT 04/M05 A3012 RMK A01 T00351046  RH  056%=      5-min Rain = 0
KFL1 250613Z 03007KT 04/M05 A3012 RMK A01 T00371048  RH  054%=      5-min Rain = 0
KFL1 250614Z 03005KT 04/M05 A3012 RMK A01 T00381048  RH  054%=      5-min Rain = 0
KFL1 250615Z 03005KT 04/M05 A3012 RMK A01 T00381049  RH  053%=      5-min Rain = 0
KFL1 250616Z 03005KT 04/M05 A3012 RMK A01 T00381049  RH  053%=      5-min Rain = 0
KFL1 250617Z 03006KT 04/M05 A3012 RMK A01 T00381048  RH  053%=      5-min Rain = 0
KFL1 250618Z 03005KT 04/M05 A3012 RMK A01 T00371050  RH  053%=      5-min Rain = 0
KFL1 250619Z 04005KT 04/M05 A3012 RMK A01 T00381049  RH  053%=      5-min Rain = 0
KFL1 250620Z 03004KT 04/M05 A3012 RMK A01 T00371050  RH  053%=      5-min Rain = 0
KFL1 250621Z 04003KT 04/M05 A3012 RMK A01 T00371045  RH  055%=      5-min Rain = 0
KFL1 250622Z 04004KT 04/M04 A3012 RMK A01 T00351044  RH  056%=      5-min Rain = 0
KFL1 250623Z 03006KT 03/M05 A3012 RMK A01 T00341045  RH  056%=      5-min Rain = 0
KFL1 250624Z 03006KT 03/M05 A3012 RMK A01 T00321050  RH  055%=      5-min Rain = 0
KFL1 250625Z 03006KT 03/M05 A3012 RMK A01 T00341050  RH  054%=      5-min Rain = 0
KFL1 250626Z 02006KT 03/M05 A3012 RMK A01 T00341046  RH  055%=      5-min Rain = 0
KFL1 250627Z 03005KT 03/M04 A3012 RMK A01 T00321039  RH  060%=      5-min Rain = 0
KFL1 250628Z 03005KT 03/M04 A3012 RMK A01 T00271040  RH  061%=      5-min Rain = 0
KFL1 250629Z 03006KT 03/M04 A3012 RMK A01 T00251041  RH  062%=      5-min Rain = 0
KFL1 250630Z 03005KT 03/M04 A3012 RMK A01 T00251039  RH  063%=      5-min Rain = 0
KFL1 250631Z 03006KT 02/M04 A3012 RMK A01 T00241040  RH  062%=      5-min Rain = 0
KFL1 250632Z 03005KT 03/M04 A3012 RMK A01 T00251044  RH  061%=      5-min Rain = 0
KFL1 250633Z 02006KT 03/M04 A3012 RMK A01 T00261040  RH  062%=      5-min Rain = 0
KFL1 250634Z 03006KT 02/M04 A3012 RMK A01 T00241038  RH  064%=      5-min Rain = 0
KFL1 250635Z 03005KT 02/M04 A3012 RMK A01 T00231040  RH  063%=      5-min Rain = 0
KFL1 250636Z 03005KT 02/M04 A3012 RMK A01 T00231044  RH  061%=      5-min Rain = 0
KFL1 250637Z 03006KT 02/M05 A3012 RMK A01 T00241046  RH  060%=      5-min Rain = 0
KFL1 250638Z 03006KT 03/M05 A3012 RMK A01 T00271046  RH  059%=      5-min Rain = 0
KFL1 250639Z 04005KT 03/M05 A3012 RMK A01 T00301048  RH  056%=      5-min Rain = 0
KFL1 250640Z 04005KT 03/M05 A3012 RMK A01 T00321049  RH  055%=      5-min Rain = 0
KFL1 250641Z 03006KT 03/M05 A3012 RMK A01 T00331049  RH  055%=      5-min Rain = 0
KFL1 250642Z 03005KT 03/M05 A3012 RMK A01 T00341050  RH  054%=      5-min Rain = 0
KFL1 250643Z 03005KT 04/M05 A3012 RMK A01 T00361050  RH  054%=      5-min Rain = 0
KFL1 250644Z 03005KT 04/M05 A3012 RMK A01 T00351050  RH  054%=      5-min Rain = 0
KFL1 250645Z 03005KT 03/M05 A3012 RMK A01 T00341047  RH  055%=      5-min Rain = 0
KFL1 250646Z 04005KT 03/M05 A3011 RMK A01 T00321048  RH  056%=      5-min Rain = 0
KFL1 250647Z 03006KT 03/M05 A3011 RMK A01 T00331050  RH  055%=      5-min Rain = 0
KFL1 250648Z 04006KT 03/M05 A3011 RMK A01 T00331050  RH  054%=      5-min Rain = 0
KFL1 250649Z 04007KT 03/M05 A3011 RMK A01 T00331051  RH  054%=      5-min Rain = 0
KFL1 250650Z 04007KT 03/M05 A3011 RMK A01 T00331052  RH  054%=      5-min Rain = 0
KFL1 250651Z 04007KT 03/M05 A3012 RMK A01 T00341050  RH  054%=      5-min Rain = 0
KFL1 250652Z 04008KT 03/M05 A3011 RMK A01 T00341047  RH  055%=      5-min Rain = 0
KFL1 250653Z 04008KT 03/M05 A3012 RMK A01 T00341045  RH  056%=      5-min Rain = 0
KFL1 250654Z 05008KT 03/M04 A3012 RMK A01 T00321044  RH  057%=      5-min Rain = 0
KFL1 250655Z 05008KT 03/M04 A3011 RMK A01 T00301044  RH  058%=      5-min Rain = 0
KFL1 250656Z 05008KT 03/M04 A3011 RMK A01 T00291044  RH  059%=      5-min Rain = 0
KFL1 250657Z 05008KT 03/M04 A3012 RMK A01 T00281043  RH  059%=      5-min Rain = 0
KFL1 250658Z 04008KT 03/M05 A3012 RMK A01 T00271045  RH  059%=      5-min Rain = 0
KFL1 250659Z 05007KT 03/M04 A3012 RMK A01 T00281044  RH  059%=      5-min Rain = 0
KFL1 250700Z 05007KT 03/M05 A3012 RMK A01 T00271045  RH  059%=      5-min Rain = 0
KFL1 250701Z 05006KT 03/M04 A3012 RMK A01 T00281044  RH  059%=      5-min Rain = 0
KFL1 250702Z 05006KT 03/M04 A3012 RMK A01 T00281044  RH  059%=      5-min Rain = 0
KFL1 250703Z 06006KT 03/M04 A3012 RMK A01 T00271044  RH  060%=      5-min Rain = 0
KFL1 250704Z 07006KT 03/M04 A3012 RMK A01 T00251044  RH  060%=      5-min Rain = 0
KFL1 250705Z 07006KT 03/M04 A3012 RMK A01 T00261043  RH  060%=      5-min Rain = 0
KFL1 250706Z 07006KT 03/M04 A3012 RMK A01 T00251044  RH  060%=      5-min Rain = 0
KFL1 250707Z 07006KT 03/M05 A3012 RMK A01 T00251045  RH  060%=      5-min Rain = 0
KFL1 250708Z 07006KT 03/M05 A3012 RMK A01 T00261046  RH  059%=      5-min Rain = 0
KFL1 250709Z 07006KT 03/M05 A3012 RMK A01 T00261047  RH  059%=      5-min Rain = 0
KFL1 250710Z 07006KT 03/M05 A3012 RMK A01 T00261047  RH  058%=      5-min Rain = 0
KFL1 250711Z 06006KT 03/M05 A3012 RMK A01 T00271049  RH  057%=      5-min Rain = 0
KFL1 250712Z 07008KT 03/M05 A3012 RMK A01 T00281050  RH  057%=      5-min Rain = 0
KFL1 250713Z 06008KT 03/M05 A3012 RMK A01 T00291052  RH  055%=      5-min Rain = 0
KFL1 250714Z 06009KT 03/M06 A3012 RMK A01 T00301055  RH  054%=      5-min Rain = 0
KFL1 250715Z 06009KT 03/M06 A3012 RMK A01 T00341055  RH  052%=      5-min Rain = 0
KFL1 250716Z 06008KT 04/M06 A3012 RMK A01 T00371056  RH  051%=      5-min Rain = 0
KFL1 250717Z 06007KT 04/M06 A3012 RMK A01 T00381057  RH  050%=      5-min Rain = 0
KFL1 250718Z 06007KT 04/M06 A3012 RMK A01 T00391057  RH  050%=      5-min Rain = 0
KFL1 250719Z 06007KT 04/M06 A3012 RMK A01 T00391057  RH  050%=      5-min Rain = 0
KFL1 250720Z 06008KT 04/M06 A3012 RMK A01 T00401056  RH  050%=      5-min Rain = 0
KFL1 250721Z 06007KT 04/M06 A3012 RMK A01 T00401056  RH  050%=      5-min Rain = 0
KFL1 250722Z 07007KT 04/M06 A3012 RMK A01 T00391057  RH  050%=      5-min Rain = 0
KFL1 250723Z 06007KT 04/M06 A3012 RMK A01 T00401055  RH  050%=      5-min Rain = 0
KFL1 250724Z 06006KT 04/M06 A3012 RMK A01 T00391055  RH  050%=      5-min Rain = 0
KFL1 250725Z 06008KT 04/M05 A3012 RMK A01 T00391054  RH  051%=      5-min Rain = 0
KFL1 250726Z 06008KT 04/M05 A3012 RMK A01 T00381054  RH  051%=      5-min Rain = 0
KFL1 250727Z 06008KT 04/M06 A3012 RMK A01 T00371057  RH  050%=      5-min Rain = 0
KFL1 250728Z 06007KT 04/M06 A3012 RMK A01 T00381057  RH  050%=      5-min Rain = 0
KFL1 250729Z 06008KT 04/M06 A3012 RMK A01 T00391059  RH  049%=      5-min Rain = 0
KFL1 250730Z 06007KT 04/M06 A3012 RMK A01 T00411057  RH  049%=      5-min Rain = 0
KFL1 250731Z 06007KT 04/M06 A3012 RMK A01 T00401056  RH  049%=      5-min Rain = 0
KFL1 250732Z 07007KT 04/M06 A3012 RMK A01 T00401057  RH  049%=      5-min Rain = 0
KFL1 250733Z 06008KT 04/M06 A3012 RMK A01 T00401056  RH  050%=      5-min Rain = 0
KFL1 250734Z 06009KT 04/M06 A3012 RMK A01 T00391057  RH  050%=      5-min Rain = 0
KFL1 250735Z 06007KT 04/M06 A3012 RMK A01 T00391060  RH  048%=      5-min Rain = 0
KFL1 250736Z 06007KT 04/M06 A3012 RMK A01 T00401060  RH  048%=      5-min Rain = 0
KFL1 250737Z 06009KT 04/M06 A3012 RMK A01 T00411059  RH  048%=      5-min Rain = 0
KFL1 250738Z 06008KT 04/M06 A3012 RMK A01 T00411060  RH  048%=      5-min Rain = 0
KFL1 250739Z 06008KT 04/M06 A3012 RMK A01 T00411061  RH  047%=      5-min Rain = 0
KFL1 250740Z 05009KT 04/M06 A3012 RMK A01 T00421060  RH  047%=      5-min Rain = 0
KFL1 250741Z 06008KT 04/M06 A3012 RMK A01 T00431059  RH  047%=      5-min Rain = 0
KFL1 250742Z 06008KT 04/M06 A3012 RMK A01 T00441059  RH  047%=      5-min Rain = 0
KFL1 250743Z 05007KT 04/M06 A3012 RMK A01 T00431060  RH  047%=      5-min Rain = 0
KFL1 250744Z 05007KT 04/M06 A3012 RMK A01 T00441059  RH  047%=      5-min Rain = 0
KFL1 250745Z 05007KT 04/M06 A3012 RMK A01 T00431059  RH  047%=      5-min Rain = 0
KFL1 250746Z 06007KT 04/M06 A3012 RMK A01 T00431060  RH  047%=      5-min Rain = 0
KFL1 250747Z 05008KT 04/M06 A3012 RMK A01 T00431060  RH  047%=      5-min Rain = 0
KFL1 250748Z 05008KT 04/M06 A3012 RMK A01 T00431060  RH  047%=      5-min Rain = 0
KFL1 250749Z 06006KT 04/M06 A3012 RMK A01 T00441061  RH  046%=      5-min Rain = 0
KFL1 250750Z 06006KT 04/M06 A3012 RMK A01 T00441062  RH  046%=      5-min Rain = 0
KFL1 250751Z 06006KT 04/M06 A3012 RMK A01 T00441059  RH  047%=      5-min Rain = 0
KFL1 250752Z 06006KT 04/M06 A3012 RMK A01 T00431056  RH  049%=      5-min Rain = 0
KFL1 250753Z 06006KT 04/M06 A3012 RMK A01 T00421056  RH  049%=      5-min Rain = 0
KFL1 250754Z 06007KT 04/M06 A3012 RMK A01 T00391056  RH  050%=      5-min Rain = 0
KFL1 250755Z 06007KT 04/M06 A3012 RMK A01 T00391055  RH  050%=      5-min Rain = 0
KFL1 250756Z 06006KT 04/M06 A3012 RMK A01 T00371057  RH  050%=      5-min Rain = 0
KFL1 250757Z 05006KT 04/M06 A3012 RMK A01 T00371057  RH  050%=      5-min Rain = 0
KFL1 250758Z 06006KT 04/M06 A3013 RMK A01 T00361059  RH  050%=      5-min Rain = 0
KFL1 250759Z 05006KT 04/M06 A3013 RMK A01 T00381057  RH  050%=      5-min Rain = 0
KFL1 250800Z 05006KT 04/M06 A3013 RMK A01 T00381057  RH  050%=      5-min Rain = 0
KFL1 250801Z 05006KT 04/M06 A3013 RMK A01 T00371057  RH  050%=      5-min Rain = 0
KFL1 250802Z 05007KT 04/M06 A3012 RMK A01 T00371057  RH  050%=      5-min Rain = 0
KFL1 250803Z 05006KT 04/M06 A3012 RMK A01 T00361058  RH  050%=      5-min Rain = 0
KFL1 250804Z 05005KT 04/M06 A3012 RMK A01 T00361060  RH  049%=      5-min Rain = 0
KFL1 250805Z 06007KT 04/M06 A3012 RMK A01 T00371060  RH  049%=      5-min Rain = 0
KFL1 250806Z 05007KT 04/M06 A3012 RMK A01 T00381061  RH  049%=      5-min Rain = 0
KFL1 250807Z 05008KT 04/M06 A3012 RMK A01 T00391063  RH  048%=      5-min Rain = 0
KFL1 250808Z 05008KT 04/M06 A3012 RMK A01 T00401063  RH  047%=      5-min Rain = 0
KFL1 250809Z 05007KT 04/M07 A3012 RMK A01 T00401066  RH  046%=      5-min Rain = 0
KFL1 250810Z 05007KT 04/M07 A3012 RMK A01 T00411066  RH  045%=      5-min Rain = 0
KFL1 250811Z 04007KT 04/M07 A3012 RMK A01 T00441066  RH  045%=      5-min Rain = 0
KFL1 250812Z 04007KT 05/M07 A3012 RMK A01 T00461065  RH  044%=      5-min Rain = 0
KFL1 250813Z 04007KT 05/M07 A3012 RMK A01 T00471067  RH  043%=      5-min Rain = 0
KFL1 250814Z 04008KT 05/M07 A3012 RMK A01 T00481068  RH  043%=      5-min Rain = 0
KFL1 250815Z 05008KT 05/M07 A3012 RMK A01 T00501067  RH  042%=      5-min Rain = 0
KFL1 250816Z 04009KT 05/M07 A3012 RMK A01 T00501069  RH  042%=      5-min Rain = 0
KFL1 250817Z 04008KT 05/M07 A3012 RMK A01 T00501067  RH  042%=      5-min Rain = 0
KFL1 250818Z 04009KT 05/M06 A3012 RMK A01 T00511064  RH  043%=      5-min Rain = 0
KFL1 250819Z 03009KT 05/M07 A3012 RMK A01 T00491065  RH  043%=      5-min Rain = 0
KFL1 250820Z 04009KT 05/M06 A3012 RMK A01 T00491064  RH  044%=      5-min Rain = 0
KFL1 250821Z 04010KT 05/M07 A3012 RMK A01 T00491065  RH  044%=      5-min Rain = 0
KFL1 250822Z 04008KT 05/M06 A3012 RMK A01 T00501064  RH  044%=      5-min Rain = 0
KFL1 250823Z 05009KT 05/M07 A3012 RMK A01 T00491066  RH  043%=      5-min Rain = 0
KFL1 250824Z 04009KT 05/M07 A3012 RMK A01 T00491066  RH  043%=      5-min Rain = 0
KFL1 250825Z 04009KT 05/M06 A3012 RMK A01 T00491063  RH  044%=      5-min Rain = 0
KFL1 250826Z 04010KT 05/M06 A3012 RMK A01 T00471062  RH  045%=      5-min Rain = 0
KFL1 250827Z 04009KT 05/M06 A3012 RMK A01 T00451061  RH  046%=      5-min Rain = 0
KFL1 250828Z 04008KT 04/M06 A3012 RMK A01 T00431060  RH  047%=      5-min Rain = 0
KFL1 250829Z 04009KT 04/M06 A3012 RMK A01 T00421060  RH  047%=      5-min Rain = 0
KFL1 250830Z 05008KT 04/M06 A3012 RMK A01 T00421060  RH  048%=      5-min Rain = 0
KFL1 250831Z 04009KT 04/M06 A3012 RMK A01 T00411057  RH  049%=      5-min Rain = 0
KFL1 250832Z 04009KT 04/M06 A3012 RMK A01 T00391057  RH  050%=      5-min Rain = 0
KFL1 250833Z 04009KT 04/M06 A3012 RMK A01 T00391056  RH  050%=      5-min Rain = 0
KFL1 250834Z 03009KT 04/M06 A3012 RMK A01 T00381058  RH  050%=      5-min Rain = 0
KFL1 250835Z 04009KT 04/M06 A3012 RMK A01 T00381058  RH  050%=      5-min Rain = 0
KFL1 250836Z 04008KT 04/M06 A3012 RMK A01 T00391057  RH  050%=      5-min Rain = 0
KFL1 250837Z 04008KT 04/M06 A3012 RMK A01 T00391057  RH  049%=      5-min Rain = 0
KFL1 250838Z 04009KT 04/M06 A3012 RMK A01 T00391059  RH  049%=      5-min Rain = 0
KFL1 250839Z 04008KT 04/M06 A3012 RMK A01 T00421061  RH  047%=      5-min Rain = 0
KFL1 250840Z 04008KT 04/M06 A3012 RMK A01 T00431063  RH  046%=      5-min Rain = 0
KFL1 250841Z 04008KT 05/M06 A3012 RMK A01 T00451063  RH  046%=      5-min Rain = 0
KFL1 250842Z 04008KT 05/M06 A3012 RMK A01 T00461064  RH  045%=      5-min Rain = 0
KFL1 250843Z 04008KT 05/M06 A3012 RMK A01 T00461062  RH  045%=      5-min Rain = 0
KFL1 250844Z 04007KT 05/M06 A3012 RMK A01 T00451060  RH  047%=      5-min Rain = 0
KFL1 250845Z 04008KT 04/M06 A3012 RMK A01 T00441057  RH  048%=      5-min Rain = 0
KFL1 250846Z 04008KT 04/M06 A3012 RMK A01 T00411058  RH  048%=      5-min Rain = 0
KFL1 250847Z 04009KT 04/M06 A3012 RMK A01 T00391057  RH  049%=      5-min Rain = 0
KFL1 250848Z 04009KT 04/M06 A3012 RMK A01 T00381058  RH  050%=      5-min Rain = 0
KFL1 250849Z 04009KT 04/M06 A3012 RMK A01 T00381057  RH  050%=      5-min Rain = 0
KFL1 250850Z 04008KT 04/M06 A3012 RMK A01 T00381059  RH  049%=      5-min Rain = 0
KFL1 250851Z 04008KT 04/M06 A3012 RMK A01 T00381060  RH  049%=      5-min Rain = 0
KFL1 250852Z 04008KT 04/M06 A3012 RMK A01 T00391058  RH  049%=      5-min Rain = 0
KFL1 250853Z 03009KT 04/M06 A3012 RMK A01 T00391055  RH  050%=      5-min Rain = 0
KFL1 250854Z 03009KT 04/M06 A3012 RMK A01 T00371057  RH  050%=      5-min Rain = 0
KFL1 250855Z 03009KT 04/M06 A3012 RMK A01 T00381057  RH  050%=      5-min Rain = 0
KFL1 250856Z 04009KT 04/M06 A3012 RMK A01 T00371059  RH  049%=      5-min Rain = 0
KFL1 250857Z 04008KT 04/M06 A3012 RMK A01 T00371059  RH  049%=      5-min Rain = 0
KFL1 250858Z 03009KT 04/M06 A3012 RMK A01 T00381058  RH  049%=      5-min Rain = 0
KFL1 250859Z 03008KT 04/M06 A3012 RMK A01 T00381058  RH  049%=      5-min Rain = 0
KFL1 250900Z 03009KT 04/M06 A3012 RMK A01 T00381058  RH  050%=      5-min Rain = 0
KFL1 250901Z 03007KT 04/M06 A3012 RMK A01 T00371058  RH  050%=      5-min Rain = 0
KFL1 250902Z 03007KT 04/M06 A3012 RMK A01 T00361060  RH  049%=      5-min Rain = 0
KFL1 250903Z 03008KT 04/M06 A3012 RMK A01 T00371060  RH  049%=      5-min Rain = 0
KFL1 250904Z 03007KT 04/M06 A3012 RMK A01 T00361060  RH  049%=      5-min Rain = 0
KFL1 250905Z 03007KT 04/M06 A3011 RMK A01 T00371056  RH  051%=      5-min Rain = 0
KFL1 250906Z 03007KT 04/M06 A3011 RMK A01 T00361058  RH  051%=      5-min Rain = 0
KFL1 250907Z 03008KT 04/M06 A3011 RMK A01 T00361059  RH  050%=      5-min Rain = 0
KFL1 250908Z 03007KT 04/M06 A3011 RMK A01 T00361059  RH  050%=      5-min Rain = 0
KFL1 250909Z 03007KT 04/M06 A3012 RMK A01 T00371055  RH  051%=      5-min Rain = 0
KFL1 250910Z 03007KT 04/M06 A3012 RMK A01 T00361057  RH  051%=      5-min Rain = 0
KFL1 250911Z 03007KT 04/M05 A3011 RMK A01 T00371053  RH  052%=      5-min Rain = 0
KFL1 250912Z 03007KT 04/M05 A3011 RMK A01 T00351050  RH  054%=      5-min Rain = 0
KFL1 250913Z 03007KT 03/M05 A3011 RMK A01 T00311054  RH  054%=      5-min Rain = 0
KFL1 250914Z 03008KT 03/M06 A3011 RMK A01 T00311055  RH  053%=      5-min Rain = 0
KFL1 250915Z 04007KT 03/M06 A3011 RMK A01 T00311058  RH  052%=      5-min Rain = 0
KFL1 250916Z 04008KT 03/M06 A3011 RMK A01 T00311055  RH  053%=      5-min Rain = 0
KFL1 250917Z 04008KT 03/M05 A3011 RMK A01 T00281053  RH  055%=      5-min Rain = 0
KFL1 250918Z 04008KT 03/M05 A3011 RMK A01 T00251053  RH  056%=      5-min Rain = 0
KFL1 250919Z 04008KT 03/M05 A3011 RMK A01 T00251051  RH  057%=      5-min Rain = 0
KFL1 250920Z 04008KT 02/M05 A3011 RMK A01 T00241051  RH  058%=      5-min Rain = 0
KFL1 250921Z 04009KT 02/M05 A3011 RMK A01 T00241051  RH  058%=      5-min Rain = 0
KFL1 250922Z 04010KT 02/M05 A3011 RMK A01 T00221052  RH  058%=      5-min Rain = 0
KFL1 250923Z 04010KT 02/M05 A3011 RMK A01 T00221052  RH  058%=      5-min Rain = 0
KFL1 250924Z 04010KT 02/M05 A3011 RMK A01 T00211053  RH  058%=      5-min Rain = 0
KFL1 250925Z 03010KT 02/M05 A3011 RMK A01 T00211054  RH  058%=      5-min Rain = 0
KFL1 250926Z 04011KT 02/M05 A3011 RMK A01 T00221053  RH  058%=      5-min Rain = 0
KFL1 250927Z 04012KT 02/M05 A3011 RMK A01 T00231052  RH  057%=      5-min Rain = 0
KFL1 250928Z 04012KT 02/M06 A3011 RMK A01 T00221055  RH  057%=      5-min Rain = 0
KFL1 250929Z 04011KT 03/M05 A3011 RMK A01 T00261053  RH  056%=      5-min Rain = 0
KFL1 250930Z 04010KT 03/M05 A3011 RMK A01 T00261054  RH  055%=      5-min Rain = 0
KFL1 250931Z 04011KT 03/M06 A3011 RMK A01 T00261055  RH  055%=      5-min Rain = 0
KFL1 250932Z 04010KT 03/M06 A3011 RMK A01 T00261055  RH  055%=      5-min Rain = 0
KFL1 250933Z 04009KT 03/M06 A3011 RMK A01 T00271056  RH  054%=      5-min Rain = 0
KFL1 250934Z 04010KT 03/M06 A3011 RMK A01 T00271056  RH  055%=      5-min Rain = 0
KFL1 250935Z 03009KT 03/M06 A3011 RMK A01 T00271055  RH  055%=      5-min Rain = 0
KFL1 250936Z 04008KT 03/M06 A3011 RMK A01 T00261055  RH  055%=      5-min Rain = 0
KFL1 250937Z 04008KT 03/M06 A3011 RMK A01 T00261056  RH  055%=      5-min Rain = 0
KFL1 250938Z 04009KT 03/M05 A3011 RMK A01 T00261054  RH  056%=      5-min Rain = 0
KFL1 250939Z 04009KT 03/M05 A3011 RMK A01 T00261053  RH  056%=      5-min Rain = 0
KFL1 250940Z 04008KT 03/M05 A3012 RMK A01 T00251053  RH  056%=      5-min Rain = 0
KFL1 250941Z 04008KT 02/M05 A3011 RMK A01 T00241053  RH  057%=      5-min Rain = 0
KFL1 250942Z 03009KT 02/M05 A3011 RMK A01 T00241053  RH  057%=      5-min Rain = 0
KFL1 250943Z 03009KT 03/M05 A3011 RMK A01 T00251052  RH  057%=      5-min Rain = 0
KFL1 250944Z 03009KT 03/M05 A3011 RMK A01 T00251054  RH  056%=      5-min Rain = 0
KFL1 250945Z 03009KT 03/M05 A3011 RMK A01 T00271054  RH  055%=      5-min Rain = 0
KFL1 250946Z 04009KT 03/M06 A3011 RMK A01 T00261056  RH  055%=      5-min Rain = 0
KFL1 250947Z 04009KT 03/M06 A3011 RMK A01 T00281055  RH  054%=      5-min Rain = 0
KFL1 250948Z 03010KT 03/M06 A3011 RMK A01 T00281057  RH  054%=      5-min Rain = 0
KFL1 250949Z 04009KT 03/M06 A3011 RMK A01 T00281058  RH  053%=      5-min Rain = 0
KFL1 250950Z 04009KT 03/M06 A3011 RMK A01 T00311055  RH  053%=      5-min Rain = 0
KFL1 250951Z 04009KT 03/M05 A3011 RMK A01 T00311054  RH  054%=      5-min Rain = 0
KFL1 250952Z 04010KT 03/M06 A3011 RMK A01 T00281055  RH  054%=      5-min Rain = 0
KFL1 250953Z 04010KT 03/M05 A3011 RMK A01 T00291052  RH  055%=      5-min Rain = 0
KFL1 250954Z 04009KT 03/M05 A3011 RMK A01 T00261054  RH  056%=      5-min Rain = 0
KFL1 250955Z 04009KT 03/M05 A3011 RMK A01 T00251054  RH  056%=      5-min Rain = 0
KFL1 250956Z 04009KT 02/M05 A3011 RMK A01 T00241053  RH  057%=      5-min Rain = 0
KFL1 250957Z 04010KT 02/M05 A3011 RMK A01 T00231054  RH  057%=      5-min Rain = 0
KFL1 250958Z 04009KT 02/M05 A3011 RMK A01 T00241052  RH  057%=      5-min Rain = 0
KFL1 250959Z 04009KT 02/M05 A3011 RMK A01 T00241052  RH  057%=      5-min Rain = 0
KFL1 251000Z 04009KT 02/M05 A3011 RMK A01 T00221053  RH  057%=      5-min Rain = 0
KFL1 251001Z 04009KT 02/M05 A3011 RMK A01 T00211054  RH  057%=      5-min Rain = 0
KFL1 251002Z 04009KT 02/M05 A3011 RMK A01 T00211054  RH  057%=      5-min Rain = 0
KFL1 251003Z 04010KT 02/M06 A3011 RMK A01 T00211055  RH  057%=      5-min Rain = 0
KFL1 251004Z 04011KT 02/M06 A3011 RMK A01 T00221055  RH  056%=      5-min Rain = 0
KFL1 251005Z 04011KT 02/M06 A3011 RMK A01 T00231055  RH  056%=      5-min Rain = 0
KFL1 251006Z 04011KT 03/M05 A3011 RMK A01 T00251054  RH  056%=      5-min Rain = 0
KFL1 251007Z 04011KT 03/M06 A3011 RMK A01 T00261055  RH  055%=      5-min Rain = 0
KFL1 251008Z 04011KT 03/M06 A3011 RMK A01 T00261056  RH  055%=      5-min Rain = 0
KFL1 251009Z 04011KT 03/M06 A3011 RMK A01 T00261058  RH  054%=      5-min Rain = 0
KFL1 251010Z 04011KT 03/M06 A3011 RMK A01 T00271058  RH  054%=      5-min Rain = 0
KFL1 251011Z 04011KT 03/M06 A3011 RMK A01 T00291056  RH  054%=      5-min Rain = 0
KFL1 251012Z 04011KT 03/M06 A3011 RMK A01 T00281059  RH  053%=      5-min Rain = 0
KFL1 251013Z 04010KT 03/M06 A3011 RMK A01 T00301059  RH  052%=      5-min Rain = 0
KFL1 251014Z 03011KT 03/M06 A3011 RMK A01 T00331061  RH  050%=      5-min Rain = 0
KFL1 251015Z 04010KT 04/M06 A3011 RMK A01 T00371060  RH  049%=      5-min Rain = 0
KFL1 251016Z 04011KT 04/M06 A3011 RMK A01 T00401061  RH  048%=      5-min Rain = 0
KFL1 251017Z 04011KT 04/M06 A3011 RMK A01 T00391063  RH  048%=      5-min Rain = 0
KFL1 251018Z 04010KT 04/M06 A3011 RMK A01 T00401062  RH  047%=      5-min Rain = 0
KFL1 251019Z 03010KT 04/M06 A3011 RMK A01 T00421063  RH  046%=      5-min Rain = 0
KFL1 251020Z 03010KT 05/M07 A3011 RMK A01 T00461066  RH  044%=      5-min Rain = 0
KFL1 251021Z 03009KT 05/M07 A3011 RMK A01 T00501069  RH  042%=      5-min Rain = 0
KFL1 251022Z 04010KT 05/M07 A3011 RMK A01 T00521069  RH  041%=      5-min Rain = 0
KFL1 251023Z 04009KT 05/M07 A3011 RMK A01 T00531067  RH  042%=      5-min Rain = 0
KFL1 251024Z 04009KT 05/M07 A3011 RMK A01 T00511067  RH  042%=      5-min Rain = 0
KFL1 251025Z 04008KT 05/M07 A3011 RMK A01 T00491067  RH  043%=      5-min Rain = 0
KFL1 251026Z 03007KT 05/M07 A3011 RMK A01 T00481067  RH  043%=      5-min Rain = 0
KFL1 251027Z 03007KT 05/M07 A3011 RMK A01 T00481066  RH  044%=      5-min Rain = 0
KFL1 251028Z 03009KT 05/M06 A3011 RMK A01 T00451062  RH  046%=      5-min Rain = 0
KFL1 251029Z 03008KT 04/M06 A3011 RMK A01 T00441064  RH  045%=      5-min Rain = 0
KFL1 251030Z 04009KT 04/M07 A3011 RMK A01 T00441065  RH  045%=      5-min Rain = 0
KFL1 251031Z 04008KT 04/M07 A3011 RMK A01 T00441070  RH  043%=      5-min Rain = 0
KFL1 251032Z 04009KT 05/M07 A3012 RMK A01 T00491069  RH  042%=      5-min Rain = 0
KFL1 251033Z 05006KT 05/M06 A3012 RMK A01 T00481061  RH  045%=      5-min Rain = 0
KFL1 251034Z 10005KT 04/M05 A3012 RMK A01 T00401051  RH  051%=      5-min Rain = 0
KFL1 251035Z 09004KT 03/M05 A3012 RMK A01 T00331053  RH  053%=      5-min Rain = 0
KFL1 251036Z 08004KT 03/M06 A3012 RMK A01 T00281059  RH  053%=      5-min Rain = 0
KFL1 251037Z 05006KT 03/M06 A3012 RMK A01 T00291060  RH  052%=      5-min Rain = 0
KFL1 251038Z 05008KT 03/M06 A3012 RMK A01 T00291057  RH  053%=      5-min Rain = 0
KFL1 251039Z 05009KT 03/M06 A3012 RMK A01 T00261057  RH  054%=      5-min Rain = 0
KFL1 251040Z 04009KT 03/M06 A3012 RMK A01 T00261057  RH  055%=      5-min Rain = 0
KFL1 251041Z 04010KT 03/M06 A3012 RMK A01 T00281057  RH  054%=      5-min Rain = 0
KFL1 251042Z 04010KT 03/M06 A3011 RMK A01 T00311061  RH  051%=      5-min Rain = 0
KFL1 251043Z 04009KT 04/M06 A3011 RMK A01 T00361062  RH  049%=      5-min Rain = 0
KFL1 251044Z 04009KT 04/M06 A3012 RMK A01 T00381062  RH  048%=      5-min Rain = 0
KFL1 251045Z 03010KT 04/M06 A3012 RMK A01 T00371063  RH  048%=      5-min Rain = 0
KFL1 251046Z 04009KT 04/M06 A3012 RMK A01 T00381064  RH  047%=      5-min Rain = 0
KFL1 251047Z 04011KT 04/M07 A3012 RMK A01 T00411065  RH  046%=      5-min Rain = 0
KFL1 251048Z 04009KT 04/M07 A3012 RMK A01 T00431065  RH  045%=      5-min Rain = 0
KFL1 251049Z 04009KT 05/M07 A3012 RMK A01 T00451065  RH  045%=      5-min Rain = 0
KFL1 251050Z 04009KT 04/M07 A3012 RMK A01 T00431065  RH  045%=      5-min Rain = 0
KFL1 251051Z 04010KT 04/M06 A3012 RMK A01 T00421062  RH  047%=      5-min Rain = 0
KFL1 251052Z 04011KT 04/M06 A3012 RMK A01 T00381063  RH  048%=      5-min Rain = 0
KFL1 251053Z 04010KT 04/M06 A3012 RMK A01 T00361063  RH  048%=      5-min Rain = 0
KFL1 251054Z 04010KT 04/M06 A3012 RMK A01 T00361063  RH  049%=      5-min Rain = 0
KFL1 251055Z 04010KT 04/M06 A3011 RMK A01 T00371061  RH  049%=      5-min Rain = 0
KFL1 251056Z 04011KT 04/M06 A3011 RMK A01 T00361061  RH  049%=      5-min Rain = 0
KFL1 251057Z 04012KT 04/M06 A3011 RMK A01 T00351061  RH  050%=      5-min Rain = 0
KFL1 251058Z 04011KT 04/M06 A3011 RMK A01 T00351059  RH  050%=      5-min Rain = 0
KFL1 251059Z 04011KT 03/M06 A3011 RMK A01 T00331060  RH  051%=      5-min Rain = 0
KFL1 251100Z 04010KT 03/M06 A3012 RMK A01 T00321059  RH  052%=      5-min Rain = 0
KFL1 251101Z 04010KT 03/M06 A3012 RMK A01 T00301058  RH  052%=      5-min Rain = 0
KFL1 251102Z 04009KT 03/M06 A3012 RMK A01 T00301056  RH  053%=      5-min Rain = 0
KFL1 251103Z 04009KT 03/M06 A3012 RMK A01 T00301055  RH  053%=      5-min Rain = 0
KFL1 251104Z 03009KT 03/M06 A3012 RMK A01 T00291056  RH  053%=      5-min Rain = 0
KFL1 251105Z 03010KT 03/M06 A3012 RMK A01 T00291058  RH  053%=      5-min Rain = 0
KFL1 251106Z 04010KT 03/M06 A3012 RMK A01 T00311058  RH  052%=      5-min Rain = 0
KFL1 251107Z 03010KT 03/M06 A3012 RMK A01 T00311058  RH  052%=      5-min Rain = 0
KFL1 251108Z 03009KT 03/M06 A3012 RMK A01 T00331057  RH  052%=      5-min Rain = 0
KFL1 251109Z 04009KT 03/M06 A3012 RMK A01 T00321060  RH  051%=      5-min Rain = 0
KFL1 251110Z 04009KT 03/M06 A3012 RMK A01 T00341058  RH  051%=      5-min Rain = 0
KFL1 251111Z 04009KT 03/M06 A3012 RMK A01 T00321060  RH  051%=      5-min Rain = 0
KFL1 251112Z 04008KT 03/M06 A3012 RMK A01 T00301059  RH  052%=      5-min Rain = 0
KFL1 251113Z 04008KT 03/M06 A3012 RMK A01 T00301058  RH  052%=      5-min Rain = 0
KFL1 251114Z 04008KT 03/M06 A3012 RMK A01 T00281058  RH  053%=      5-min Rain = 0
KFL1 251115Z 04007KT 03/M06 A3012 RMK A01 T00291056  RH  054%=      5-min Rain = 0
KFL1 251116Z 04007KT 03/M06 A3012 RMK A01 T00281056  RH  054%=      5-min Rain = 0
KFL1 251117Z 04009KT 03/M06 A3012 RMK A01 T00281056  RH  054%=      5-min Rain = 0
KFL1 251118Z 04009KT 03/M06 A3012 RMK A01 T00281055  RH  054%=      5-min Rain = 0
KFL1 251119Z 04009KT 03/M06 A3012 RMK A01 T00281055  RH  054%=      5-min Rain = 0
KFL1 251120Z 04009KT 03/M06 A3012 RMK A01 T00281056  RH  054%=      5-min Rain = 0
KFL1 251121Z 04009KT 03/M06 A3012 RMK A01 T00281056  RH  054%=      5-min Rain = 0
KFL1 251122Z 04009KT 03/M06 A3012 RMK A01 T00281055  RH  054%=      5-min Rain = 0
KFL1 251123Z 04010KT 03/M06 A3012 RMK A01 T00281056  RH  054%=      5-min Rain = 0
KFL1 251124Z 04009KT 03/M06 A3012 RMK A01 T00281056  RH  054%=      5-min Rain = 0
KFL1 251125Z 04009KT 03/M06 A3012 RMK A01 T00281056  RH  054%=      5-min Rain = 0
KFL1 251126Z 04009KT 03/M06 A3012 RMK A01 T00281056  RH  054%=      5-min Rain = 0
KFL1 251127Z 04010KT 03/M06 A3012 RMK A01 T00271056  RH  054%=      5-min Rain = 0
KFL1 251128Z 04010KT 03/M06 A3012 RMK A01 T00271055  RH  055%=      5-min Rain = 0
KFL1 251129Z 04011KT 03/M06 A3012 RMK A01 T00271056  RH  055%=      5-min Rain = 0
KFL1 251130Z 04010KT 03/M05 A3012 RMK A01 T00291054  RH  054%=      5-min Rain = 0
KFL1 251131Z 04010KT 03/M06 A3012 RMK A01 T00271057  RH  054%=      5-min Rain = 0
KFL1 251132Z 03010KT 03/M06 A3012 RMK A01 T00281057  RH  053%=      5-min Rain = 0
KFL1 251133Z 03011KT 03/M06 A3012 RMK A01 T00291058  RH  053%=      5-min Rain = 0
KFL1 251134Z 03010KT 03/M06 A3012 RMK A01 T00311060  RH  052%=      5-min Rain = 0
KFL1 251135Z 03010KT 03/M06 A3012 RMK A01 T00341059  RH  051%=      5-min Rain = 0
KFL1 251136Z 03008KT 04/M06 A3012 RMK A01 T00371062  RH  049%=      5-min Rain = 0
KFL1 251137Z 03008KT 04/M06 A3012 RMK A01 T00391062  RH  047%=      5-min Rain = 0
KFL1 251138Z 04008KT 04/M06 A3012 RMK A01 T00401061  RH  048%=      5-min Rain = 0
KFL1 251139Z 03008KT 04/M06 A3012 RMK A01 T00381061  RH  049%=      5-min Rain = 0
KFL1 251140Z 03008KT 04/M06 A3012 RMK A01 T00371060  RH  049%=      5-min Rain = 0
KFL1 251141Z 03007KT 04/M06 A3012 RMK A01 T00371058  RH  050%=      5-min Rain = 0
KFL1 251142Z 04008KT 04/M06 A3012 RMK A01 T00351059  RH  050%=      5-min Rain = 0
KFL1 251143Z 03007KT 04/M06 A3012 RMK A01 T00351061  RH  049%=      5-min Rain = 0
KFL1 251144Z 03008KT 04/M06 A3012 RMK A01 T00371060  RH  049%=      5-min Rain = 0
KFL1 251145Z 03008KT 04/M06 A3012 RMK A01 T00381060  RH  049%=      5-min Rain = 0
KFL1 251146Z 04005KT 04/M06 A3012 RMK A01 T00381059  RH  049%=      5-min Rain = 0
KFL1 251147Z 04007KT 04/M06 A3012 RMK A01 T00371061  RH  049%=      5-min Rain = 0
KFL1 251148Z 04008KT 04/M06 A3012 RMK A01 T00361060  RH  049%=      5-min Rain = 0
KFL1 251149Z 05006KT 03/M06 A3012 RMK A01 T00341060  RH  050%=      5-min Rain = 0
KFL1 251150Z 05005KT 03/M06 A3013 RMK A01 T00321058  RH  052%=      5-min Rain = 0
KFL1 251151Z 04007KT 03/M05 A3013 RMK A01 T00291054  RH  054%=      5-min Rain = 0
KFL1 251152Z 04008KT 03/M06 A3013 RMK A01 T00271055  RH  055%=      5-min Rain = 0
KFL1 251153Z 04008KT 03/M06 A3013 RMK A01 T00251057  RH  055%=      5-min Rain = 0
KFL1 251154Z 03008KT 03/M06 A3013 RMK A01 T00261056  RH  055%=      5-min Rain = 0
KFL1 251155Z 03008KT 03/M06 A3013 RMK A01 T00251057  RH  055%=      5-min Rain = 0
KFL1 251156Z 04007KT 03/M06 A3013 RMK A01 T00271057  RH  054%=      5-min Rain = 0
KFL1 251157Z 03008KT 03/M06 A3013 RMK A01 T00301057  RH  053%=      5-min Rain = 0
KFL1 251158Z 04008KT 03/M06 A3013 RMK A01 T00311057  RH  052%=      5-min Rain = 0
KFL1 251159Z 03009KT 03/M06 A3013 RMK A01 T00291059  RH  052%=      5-min Rain = 0
KFL1 251200Z 04007KT 03/M06 A3013 RMK A01 T00311057  RH  052%=      5-min Rain = 0
KFL1 251201Z 04008KT 03/M06 A3013 RMK A01 T00301057  RH  053%=      5-min Rain = 0
KFL1 251202Z 04008KT 03/M06 A3013 RMK A01 T00291058  RH  053%=      5-min Rain = 0
KFL1 251203Z 04009KT 03/M06 A3013 RMK A01 T00291059  RH  053%=      5-min Rain = 0
KFL1 251204Z 04010KT 03/M06 A3013 RMK A01 T00301058  RH  052%=      5-min Rain = 0
KFL1 251205Z 04008KT 03/M06 A3013 RMK A01 T00301059  RH  052%=      5-min Rain = 0
KFL1 251206Z 04010KT 03/M06 A3013 RMK A01 T00291060  RH  052%=      5-min Rain = 0
KFL1 251207Z 04010KT 03/M06 A3013 RMK A01 T00301058  RH  053%=      5-min Rain = 0
KFL1 251208Z 04010KT 03/M06 A3013 RMK A01 T00291058  RH  053%=      5-min Rain = 0
KFL1 251209Z 04009KT 03/M06 A3013 RMK A01 T00281057  RH  053%=      5-min Rain = 0
KFL1 251210Z 04009KT 03/M06 A3013 RMK A01 T00281057  RH  054%=      5-min Rain = 0
KFL1 251211Z 04009KT 03/M06 A3013 RMK A01 T00281056  RH  054%=      5-min Rain = 0
KFL1 251212Z 04009KT 03/M06 A3013 RMK A01 T00281056  RH  054%=      5-min Rain = 0
KFL1 251213Z 04010KT 03/M06 A3013 RMK A01 T00281057  RH  054%=      5-min Rain = 0
KFL1 251214Z 04010KT 03/M06 A3013 RMK A01 T00291055  RH  054%=      5-min Rain = 0
KFL1 251215Z 04008KT 03/M06 A3013 RMK A01 T00291055  RH  054%=      5-min Rain = 0
KFL1 251216Z 03009KT 03/M06 A3013 RMK A01 T00281056  RH  054%=      5-min Rain = 0
KFL1 251217Z 04009KT 03/M06 A3013 RMK A01 T00281057  RH  054%=      5-min Rain = 0
KFL1 251218Z 04009KT 03/M06 A3013 RMK A01 T00301056  RH  053%=      5-min Rain = 0
KFL1 251219Z 03009KT 03/M06 A3013 RMK A01 T00311056  RH  053%=      5-min Rain = 0
KFL1 251220Z 04009KT 03/M06 A3013 RMK A01 T00331057  RH  052%=      5-min Rain = 0
KFL1 251221Z 04009KT 04/M05 A3013 RMK A01 T00351054  RH  052%=      5-min Rain = 0
KFL1 251222Z 04009KT 03/M05 A3013 RMK A01 T00341053  RH  053%=      5-min Rain = 0
KFL1 251223Z 04009KT 03/M05 A3013 RMK A01 T00321054  RH  053%=      5-min Rain = 0
KFL1 251224Z 05007KT 03/M06 A3013 RMK A01 T00311055  RH  053%=      5-min Rain = 0
KFL1 251225Z 05008KT 03/M05 A3013 RMK A01 T00311053  RH  054%=      5-min Rain = 0
KFL1 251226Z 05008KT 03/M05 A3013 RMK A01 T00311051  RH  055%=      5-min Rain = 0
KFL1 251227Z 04009KT 03/M05 A3013 RMK A01 T00291052  RH  055%=      5-min Rain = 0
KFL1 251228Z 05008KT 03/M05 A3013 RMK A01 T00291052  RH  055%=      5-min Rain = 0
KFL1 251229Z 04009KT 03/M05 A3013 RMK A01 T00301053  RH  055%=      5-min Rain = 0
KFL1 251230Z 04010KT 03/M05 A3013 RMK A01 T00291054  RH  054%=      5-min Rain = 0
KFL1 251231Z 04010KT 03/M05 A3013 RMK A01 T00311054  RH  054%=      5-min Rain = 0
KFL1 251232Z 04010KT 03/M05 A3013 RMK A01 T00321054  RH  053%=      5-min Rain = 0
KFL1 251233Z 04010KT 03/M06 A3013 RMK A01 T00341055  RH  052%=      5-min Rain = 0
KFL1 251234Z 04010KT 04/M06 A3013 RMK A01 T00371055  RH  051%=      5-min Rain = 0
KFL1 251235Z 04009KT 04/M06 A3013 RMK A01 T00421057  RH  048%=      5-min Rain = 0
KFL1 251236Z 04007KT 05/M06 A3013 RMK A01 T00461058  RH  047%=      5-min Rain = 0
KFL1 251237Z 05009KT 05/M06 A3013 RMK A01 T00491057  RH  046%=      5-min Rain = 0
KFL1 251238Z 04009KT 05/M05 A3013 RMK A01 T00501052  RH  048%=      5-min Rain = 0
KFL1 251239Z 04010KT 05/M05 A3013 RMK A01 T00501052  RH  048%=      5-min Rain = 0
KFL1 251240Z 04009KT 05/M05 A3013 RMK A01 T00491054  RH  047%=      5-min Rain = 0
KFL1 251241Z 04009KT 05/M06 A3013 RMK A01 T00521058  RH  045%=      5-min Rain = 0
KFL1 251242Z 04008KT 06/M06 A3013 RMK A01 T00551062  RH  043%=      5-min Rain = 0
KFL1 251243Z 04007KT 06/M06 A3013 RMK A01 T00581061  RH  042%=      5-min Rain = 0
KFL1 251244Z 04008KT 06/M06 A3013 RMK A01 T00611059  RH  042%=      5-min Rain = 0
KFL1 251245Z 04008KT 06/M06 A3013 RMK A01 T00611059  RH  042%=      5-min Rain = 0
KFL1 251246Z 04008KT 06/M06 A3013 RMK A01 T00611057  RH  043%=      5-min Rain = 0
KFL1 251247Z 05007KT 06/M06 A3013 RMK A01 T00601055  RH  043%=      5-min Rain = 0
KFL1 251248Z 05008KT 06/M05 A3013 RMK A01 T00601053  RH  044%=      5-min Rain = 0
KFL1 251249Z 05008KT 06/M05 A3013 RMK A01 T00591053  RH  045%=      5-min Rain = 0
KFL1 251250Z 04008KT 06/M05 A3013 RMK A01 T00591051  RH  045%=      5-min Rain = 0
KFL1 251251Z 05008KT 06/M05 A3013 RMK A01 T00591054  RH  044%=      5-min Rain = 0
KFL1 251252Z 04008KT 06/M05 A3013 RMK A01 T00601054  RH  044%=      5-min Rain = 0
KFL1 251253Z 04009KT 06/M06 A3013 RMK A01 T00591056  RH  043%=      5-min Rain = 0
KFL1 251254Z 03009KT 06/M06 A3013 RMK A01 T00601057  RH  043%=      5-min Rain = 0
KFL1 251255Z 04009KT 06/M06 A3013 RMK A01 T00611056  RH  043%=      5-min Rain = 0
KFL1 251256Z 04008KT 06/M06 A3013 RMK A01 T00621055  RH  043%=      5-min Rain = 0
KFL1 251257Z 05007KT 06/M05 A3013 RMK A01 T00621051  RH  044%=      5-min Rain = 0
KFL1 251258Z 05007KT 06/M05 A3013 RMK A01 T00621048  RH  045%=      5-min Rain = 0
KFL1 251259Z 04009KT 06/M05 A3013 RMK A01 T00631046  RH  045%=      5-min Rain = 0
KFL1 251300Z 04008KT 06/M05 A3013 RMK A01 T00631050  RH  044%=      5-min Rain = 0
KFL1 251301Z 04008KT 06/M05 A3013 RMK A01 T00631052  RH  043%=      5-min Rain = 0
KFL1 251302Z 04009KT 06/M05 A3013 RMK A01 T00641051  RH  044%=      5-min Rain = 0
KFL1 251303Z 04008KT 06/M05 A3013 RMK A01 T00641050  RH  044%=      5-min Rain = 0
KFL1 251304Z 04009KT 06/M05 A3013 RMK A01 T00641051  RH  044%=      5-min Rain = 0
KFL1 251305Z 04009KT 06/M05 A3013 RMK A01 T00641053  RH  043%=      5-min Rain = 0
KFL1 251306Z 04009KT 07/M06 A3013 RMK A01 T00651055  RH  042%=      5-min Rain = 0
KFL1 251307Z 04009KT 07/M05 A3013 RMK A01 T00671053  RH  042%=      5-min Rain = 0
KFL1 251308Z 04008KT 07/M05 A3013 RMK A01 T00681052  RH  042%=      5-min Rain = 0
KFL1 251309Z 04009KT 07/M05 A3013 RMK A01 T00691051  RH  042%=      5-min Rain = 0
KFL1 251310Z 04009KT 07/M05 A3013 RMK A01 T00691052  RH  042%=      5-min Rain = 0
KFL1 251311Z 04009KT 07/M05 A3013 RMK A01 T00701049  RH  042%=      5-min Rain = 0
KFL1 251312Z 04008KT 07/M05 A3013 RMK A01 T00711048  RH  042%=      5-min Rain = 0
KFL1 251313Z 04008KT 07/M05 A3013 RMK A01 T00721048  RH  042%=      5-min Rain = 0
KFL1 251314Z 04007KT 07/M05 A3013 RMK A01 T00741051  RH  041%=      5-min Rain = 0
KFL1 251315Z 04007KT 08/M05 A3013 RMK A01 T00771051  RH  040%=      5-min Rain = 0
KFL1 251316Z 04008KT 08/M05 A3013 RMK A01 T00791050  RH  040%=      5-min Rain = 0
KFL1 251317Z 05006KT 08/M05 A3013 RMK A01 T00801050  RH  039%=      5-min Rain = 0
KFL1 251318Z 05006KT 08/M05 A3014 RMK A01 T00811049  RH  039%=      5-min Rain = 0
KFL1 251319Z 05007KT 08/M05 A3014 RMK A01 T00811046  RH  040%=      5-min Rain = 0
KFL1 251320Z 05006KT 08/M04 A3014 RMK A01 T00821044  RH  041%=      5-min Rain = 0
KFL1 251321Z 05008KT 08/M04 A3014 RMK A01 T00831043  RH  040%=      5-min Rain = 0
KFL1 251322Z 05007KT 09/M05 A3014 RMK A01 T00851045  RH  040%=      5-min Rain = 0
KFL1 251323Z 05007KT 09/M05 A3014 RMK A01 T00851046  RH  039%=      5-min Rain = 0
KFL1 251324Z 05008KT 09/M05 A3014 RMK A01 T00861049  RH  038%=      5-min Rain = 0
KFL1 251325Z 04008KT 09/M05 A3014 RMK A01 T00891052  RH  037%=      5-min Rain = 0
KFL1 251326Z 04008KT 09/M05 A3014 RMK A01 T00901054  RH  036%=      5-min Rain = 0
KFL1 251327Z 05009KT 09/M06 A3014 RMK A01 T00911055  RH  035%=      5-min Rain = 0
KFL1 251328Z 05007KT 09/M05 A3014 RMK A01 T00941054  RH  035%=      5-min Rain = 0
KFL1 251329Z 05008KT 10/M05 A3014 RMK A01 T00951054  RH  035%=      5-min Rain = 0
KFL1 251330Z 05006KT 10/M05 A3014 RMK A01 T00971053  RH  034%=      5-min Rain = 0
KFL1 251331Z 05007KT 10/M06 A3014 RMK A01 T00991055  RH  033%=      5-min Rain = 0
KFL1 251332Z 05006KT 10/M05 A3014 RMK A01 T01001054  RH  033%=      5-min Rain = 0
KFL1 251333Z 06005KT 10/M06 A3014 RMK A01 T01001055  RH  033%=      5-min Rain = 0
KFL1 251334Z 06004KT 10/M05 A3014 RMK A01 T01031050  RH  034%=      5-min Rain = 0
KFL1 251335Z 05004KT 10/M05 A3014 RMK A01 T01031049  RH  034%=      5-min Rain = 0
KFL1 251336Z 06004KT 10/M05 A3014 RMK A01 T01021050  RH  034%=      5-min Rain = 0
KFL1 251337Z 06005KT 10/M04 A3014 RMK A01 T01041043  RH  035%=      5-min Rain = 0
KFL1 251338Z 06006KT 10/M05 A3014 RMK A01 T01041047  RH  034%=      5-min Rain = 0
KFL1 251339Z 06005KT 11/M04 A3014 RMK A01 T01071043  RH  035%=      5-min Rain = 0
KFL1 251340Z 07005KT 11/M04 A3014 RMK A01 T01071040  RH  035%=      5-min Rain = 0
KFL1 251341Z 08004KT 11/M04 A3014 RMK A01 T01081037  RH  036%=      5-min Rain = 0
KFL1 251342Z 07004KT 11/M03 A3014 RMK A01 T01091034  RH  037%=      5-min Rain = 0
KFL1 251343Z 08006KT 11/M04 A3014 RMK A01 T01101041  RH  034%=      5-min Rain = 0
KFL1 251344Z 06005KT 11/M05 A3014 RMK A01 T01101052  RH  032%=      5-min Rain = 0
KFL1 251345Z 07004KT 11/M05 A3014 RMK A01 T01101049  RH  032%=      5-min Rain = 0
KFL1 251346Z 08008KT 11/M05 A3014 RMK A01 T01111050  RH  032%=      5-min Rain = 0
KFL1 251347Z 08006KT 11/M05 A3014 RMK A01 T01121051  RH  031%=      5-min Rain = 0
KFL1 251348Z 08007KT 11/M05 A3014 RMK A01 T01111049  RH  032%=      5-min Rain = 0
KFL1 251349Z 07007KT 11/M03 A3014 RMK A01 T01101033  RH  036%=      5-min Rain = 0
KFL1 251350Z 07006KT 11/M04 A3014 RMK A01 T01111042  RH  034%=      5-min Rain = 0
KFL1 251351Z 07006KT 11/M05 A3014 RMK A01 T01121045  RH  033%=      5-min Rain = 0
KFL1 251352Z 07007KT 11/M03 A3014 RMK A01 T01131031  RH  037%=      5-min Rain = 0
KFL1 251353Z 08007KT 11/M04 A3014 RMK A01 T01131038  RH  035%=      5-min Rain = 0
KFL1 251354Z 08008KT 11/M02 A3014 RMK A01 T01131021  RH  039%=      5-min Rain = 0
KFL1 251355Z 08008KT 11/M04 A3014 RMK A01 T01141044  RH  033%=      5-min Rain = 0
KFL1 251356Z 09007KT 11/M05 A3014 RMK A01 T01141051  RH  031%=      5-min Rain = 0
KFL1 251357Z 08009KT 11/M05 A3014 RMK A01 T01131052  RH  031%=      5-min Rain = 0
KFL1 251358Z 08010KT 11/M03 A3014 RMK A01 T01131034  RH  035%=      5-min Rain = 0
KFL1 251359Z 08010KT 12/M03 A3014 RMK A01 T01151028  RH  037%=      5-min Rain = 0
KFL1 251400Z 08006KT 11/M04 A3014 RMK A01 T01131041  RH  034%=      5-min Rain = 0
KFL1 251401Z 08008KT 11/M05 A3014 RMK A01 T01141050  RH  031%=      5-min Rain = 0
KFL1 251402Z 08007G12KT 12/M05 A3014 RMK A01 T01151050  RH  031%=      5-min Rain = 0
KFL1 251403Z 08009KT 11/M05 A3014 RMK A01 T01141051  RH  031%=      5-min Rain = 0
KFL1 251404Z 08009KT 12/M04 A3014 RMK A01 T01151041  RH  033%=      5-min Rain = 0
KFL1 251405Z 08008KT 12/M04 A3014 RMK A01 T01151042  RH  033%=      5-min Rain = 0
KFL1 251406Z 08008KT 12/M04 A3014 RMK A01 T01161037  RH  034%=      5-min Rain = 0
KFL1 251407Z 09007KT 12/M03 A3014 RMK A01 T01161032  RH  035%=      5-min Rain = 0
KFL1 251408Z 09009KT 12/M03 A3014 RMK A01 T01171034  RH  035%=      5-min Rain = 0
KFL1 251409Z 09008KT 12/M04 A3014 RMK A01 T01181038  RH  033%=      5-min Rain = 0
KFL1 251410Z 07007KT 12/M04 A3014 RMK A01 T01191036  RH  034%=      5-min Rain = 0
KFL1 251411Z 08008KT 12/M04 A3014 RMK A01 T01181038  RH  033%=      5-min Rain = 0
KFL1 251412Z 08008KT 12/M03 A3014 RMK A01 T01191032  RH  035%=      5-min Rain = 0
KFL1 251413Z 09010KT 12/M03 A3014 RMK A01 T01211033  RH  034%=      5-min Rain = 0
KFL1 251414Z 09007KT 12/M03 A3014 RMK A01 T01201033  RH  034%=      5-min Rain = 0
KFL1 251415Z 09008KT 12/M05 A3014 RMK A01 T01201049  RH  030%=      5-min Rain = 0
KFL1 251416Z 09008KT 12/M04 A3014 RMK A01 T01201044  RH  032%=      5-min Rain = 0
KFL1 251417Z 08008KT 12/M05 A3014 RMK A01 T01201047  RH  031%=      5-min Rain = 0
KFL1 251418Z 09008KT 12/M04 A3014 RMK A01 T01191043  RH  032%=      5-min Rain = 0
KFL1 251419Z 08010KT 12/M04 A3014 RMK A01 T01201035  RH  034%=      5-min Rain = 0
KFL1 251420Z 09009KT 12/M04 A3015 RMK A01 T01211036  RH  033%=      5-min Rain = 0
KFL1 251421Z 09008KT 12/M03 A3015 RMK A01 T01211032  RH  034%=      5-min Rain = 0
KFL1 251422Z 09008KT 12/M02 A3015 RMK A01 T01231022  RH  036%=      5-min Rain = 0
KFL1 251423Z 09007KT 12/M03 A3015 RMK A01 T01231030  RH  034%=      5-min Rain = 0
KFL1 251424Z 09007KT 12/M04 A3015 RMK A01 T01241037  RH  033%=      5-min Rain = 0
KFL1 251425Z 09009KT 12/M04 A3015 RMK A01 T01241035  RH  033%=      5-min Rain = 0
KFL1 251426Z 08009KT 13/M03 A3015 RMK A01 T01251026  RH  035%=      5-min Rain = 0
KFL1 251427Z 08009KT 12/M05 A3015 RMK A01 T01241050  RH  029%=      5-min Rain = 0
KFL1 251428Z 09009KT 13/M05 A3015 RMK A01 T01261047  RH  030%=      5-min Rain = 0
KFL1 251429Z 09006KT 13/M05 A3015 RMK A01 T01251046  RH  030%=      5-min Rain = 0
KFL1 251430Z 09006KT 13/M04 A3015 RMK A01 T01251036  RH  032%=      5-min Rain = 0
KFL1 251431Z 10007KT 13/M02 A3015 RMK A01 T01281015  RH  037%=      5-min Rain = 0
KFL1 251432Z 10006KT 13/M03 A3015 RMK A01 T01291027  RH  034%=      5-min Rain = 0
KFL1 251433Z 09005KT 13/M04 A3015 RMK A01 T01271036  RH  032%=      5-min Rain = 0
KFL1 251434Z 10005G12KT 13/M06 A3015 RMK A01 T01271059  RH  027%=      5-min Rain = 0
KFL1 251435Z 09009KT 13/M05 A3015 RMK A01 T01251052  RH  029%=      5-min Rain = 0
KFL1 251436Z 09006KT 13/M04 A3015 RMK A01 T01251044  RH  030%=      5-min Rain = 0
KFL1 251437Z 08008KT 13/M04 A3015 RMK A01 T01261038  RH  032%=      5-min Rain = 0
KFL1 251438Z 08008KT 13/M05 A3015 RMK A01 T01281047  RH  029%=      5-min Rain = 0
KFL1 251439Z 08008KT 13/M04 A3015 RMK A01 T01281041  RH  031%=      5-min Rain = 0
KFL1 251440Z 09007KT 13/M02 A3015 RMK A01 T01321022  RH  034%=      5-min Rain = 0
KFL1 251441Z 09006KT 13/M04 A3015 RMK A01 T01311036  RH  031%=      5-min Rain = 0
KFL1 251442Z 11005KT 13/M04 A3015 RMK A01 T01301040  RH  030%=      5-min Rain = 0
KFL1 251443Z 11005KT 13/M03 A3015 RMK A01 T01311034  RH  032%=      5-min Rain = 0
KFL1 251444Z 12006KT 13/M05 A3015 RMK A01 T01291045  RH  029%=      5-min Rain = 0
KFL1 251445Z 12006KT 13/M05 A3015 RMK A01 T01291045  RH  029%=      5-min Rain = 0
KFL1 251446Z 09008KT 13/M04 A3015 RMK A01 T01291043  RH  030%=      5-min Rain = 0
KFL1 251447Z 11008KT 13/M04 A3015 RMK A01 T01301036  RH  031%=      5-min Rain = 0
KFL1 251448Z 10007KT 13/M02 A3015 RMK A01 T01311022  RH  035%=      5-min Rain = 0
KFL1 251449Z 11006KT 13/M02 A3015 RMK A01 T01321023  RH  034%=      5-min Rain = 0
KFL1 251450Z 10007KT 13/M03 A3015 RMK A01 T01321031  RH  032%=      5-min Rain = 0
KFL1 251451Z 08006KT 13/M02 A3015 RMK A01 T01341019  RH  035%=      5-min Rain = 0
KFL1 251452Z 09006KT 14/M02 A3015 RMK A01 T01361022  RH  034%=      5-min Rain = 0
KFL1 251453Z 09006KT 14/M04 A3015 RMK A01 T01361040  RH  029%=      5-min Rain = 0
KFL1 251454Z 10007KT 14/M03 A3015 RMK A01 T01351031  RH  032%=      5-min Rain = 0
KFL1 251455Z 12005KT 13/M04 A3015 RMK A01 T01331040  RH  030%=      5-min Rain = 0
KFL1 251456Z 10007KT 13/M04 A3016 RMK A01 T01331039  RH  030%=      5-min Rain = 0
KFL1 251457Z 11007KT 13/M04 A3016 RMK A01 T01321037  RH  031%=      5-min Rain = 0
KFL1 251458Z 11006KT 13/M03 A3016 RMK A01 T01331025  RH  033%=      5-min Rain = 0
KFL1 251459Z 11008KT 13/M04 A3016 RMK A01 T01341041  RH  029%=      5-min Rain = 0
KFL1 251500Z 10007KT 13/M04 A3016 RMK A01 T01321039  RH  030%=      5-min Rain = 0
KFL1 251501Z 10008KT 13/M03 A3016 RMK A01 T01301032  RH  032%=      5-min Rain = 0
KFL1 251502Z 10007KT 13/M02 A3016 RMK A01 T01321021  RH  035%=      5-min Rain = 0
KFL1 251503Z 10007KT 13/M03 A3016 RMK A01 T01331025  RH  033%=      5-min Rain = 0
KFL1 251504Z 10007KT 14/M02 A3016 RMK A01 T01361020  RH  034%=      5-min Rain = 0
KFL1 251505Z 10005G10KT 14/M02 A3016 RMK A01 T01361022  RH  033%=      5-min Rain = 0
KFL1 251506Z 10006KT 14/M03 A3016 RMK A01 T01361028  RH  032%=      5-min Rain = 0
KFL1 251507Z 12004KT 14/M01 A3016 RMK A01 T01361013  RH  036%=      5-min Rain = 0
KFL1 251508Z 11007KT 14/M03 A3016 RMK A01 T01371032  RH  031%=      5-min Rain = 0
KFL1 251509Z 10006KT 14/M03 A3016 RMK A01 T01351034  RH  031%=      5-min Rain = 0
KFL1 251510Z 11006KT 14/M03 A3016 RMK A01 T01351030  RH  032%=      5-min Rain = 0
KFL1 251511Z 09008KT 14/M02 A3016 RMK A01 T01351017  RH  035%=      5-min Rain = 0
KFL1 251512Z 09008KT 14/M01 A3016 RMK A01 T01371010  RH  036%=      5-min Rain = 0
KFL1 251513Z 11006KT 14/M02 A3016 RMK A01 T01401016  RH  034%=      5-min Rain = 0
KFL1 251514Z 11004KT 14/M03 A3016 RMK A01 T01401032  RH  030%=      5-min Rain = 0
KFL1 251515Z 13004KT 14/M05 A3016 RMK A01 T01391047  RH  027%=      5-min Rain = 0
KFL1 251516Z 12006KT 14/M05 A3016 RMK A01 T01361047  RH  028%=      5-min Rain = 0
KFL1 251517Z 11006KT 14/M05 A3016 RMK A01 T01351050  RH  027%=      5-min Rain = 0
KFL1 251518Z 10006KT 14/M03 A3016 RMK A01 T01351029  RH  032%=      5-min Rain = 0
KFL1 251519Z 11007KT 14/M03 A3016 RMK A01 T01391025  RH  032%=      5-min Rain = 0
KFL1 251520Z 12006KT 14/M04 A3016 RMK A01 T01391042  RH  028%=      5-min Rain = 0
KFL1 251521Z 11005KT 14/M03 A3016 RMK A01 T01381025  RH  032%=      5-min Rain = 0
KFL1 251522Z 14006KT 14/M04 A3016 RMK A01 T01391036  RH  030%=      5-min Rain = 0
KFL1 251523Z 13004KT 14/M04 A3016 RMK A01 T01361041  RH  029%=      5-min Rain = 0
KFL1 251524Z 14004KT 14/M05 A3016 RMK A01 T01351050  RH  027%=      5-min Rain = 0
KFL1 251525Z 12004KT 14/M04 A3016 RMK A01 T01361043  RH  029%=      5-min Rain = 0
KFL1 251526Z 10007KT 14/M02 A3016 RMK A01 T01361023  RH  033%=      5-min Rain = 0
KFL1 251527Z 09007KT 14/M01 A3016 RMK A01 T01381009  RH  036%=      5-min Rain = 0
KFL1 251528Z 12005KT 14/M03 A3016 RMK A01 T01401032  RH  030%=      5-min Rain = 0
KFL1 251529Z 12004KT 14/M04 A3016 RMK A01 T01401042  RH  028%=      5-min Rain = 0
KFL1 251530Z 11006KT 14/M05 A3016 RMK A01 T01381045  RH  028%=      5-min Rain = 0
KFL1 251531Z 12004KT 14/M03 A3016 RMK A01 T01381031  RH  031%=      5-min Rain = 0
KFL1 251532Z 10006KT 14/M03 A3016 RMK A01 T01401028  RH  031%=      5-min Rain = 0
KFL1 251533Z 09006KT 14/M04 A3016 RMK A01 T01401041  RH  028%=      5-min Rain = 0
KFL1 251534Z 08007KT 14/M04 A3016 RMK A01 T01391038  RH  029%=      5-min Rain = 0
KFL1 251535Z 08006KT 14/M04 A3016 RMK A01 T01401038  RH  029%=      5-min Rain = 0
KFL1 251536Z 08004KT 14/M04 A3016 RMK A01 T01391039  RH  029%=      5-min Rain = 0
KFL1 251537Z 08004KT 14/M04 A3016 RMK A01 T01391044  RH  028%=      5-min Rain = 0
KFL1 251538Z 10004KT 14/M03 A3016 RMK A01 T01401033  RH  030%=      5-min Rain = 0
KFL1 251539Z 11004KT 14/M02 A3016 RMK A01 T01431024  RH  032%=      5-min Rain = 0
KFL1 251540Z 10003KT 15/M02 A3016 RMK A01 T01451019  RH  032%=      5-min Rain = 0
KFL1 251541Z 13002KT 15/M04 A3016 RMK A01 T01451038  RH  028%=      5-min Rain = 0
KFL1 251542Z 08002KT 14/M04 A3016 RMK A01 T01411044  RH  027%=      5-min Rain = 0
KFL1 251543Z 08006KT 14/M02 A3016 RMK A01 T01411019  RH  033%=      5-min Rain = 0
KFL1 251544Z 09005KT 14/M02 A3016 RMK A01 T01441016  RH  033%=      5-min Rain = 0
KFL1 251545Z 10004KT 15/M02 A3016 RMK A01 T01471019  RH  032%=      5-min Rain = 0
KFL1 251546Z 09006KT 15/M03 A3016 RMK A01 T01471031  RH  029%=      5-min Rain = 0
KFL1 251547Z 10005KT 15/M04 A3016 RMK A01 T01461040  RH  027%=      5-min Rain = 0
KFL1 251548Z 11003KT 14/M03 A3016 RMK A01 T01441032  RH  030%=      5-min Rain = 0
KFL1 251549Z 11002KT 14/M03 A3016 RMK A01 T01431034  RH  029%=      5-min Rain = 0
KFL1 251550Z 23002KT 14/M03 A3016 RMK A01 T01441032  RH  029%=      5-min Rain = 0
KFL1 251551Z 15002KT 15/M03 A3016 RMK A01 T01451028  RH  030%=      5-min Rain = 0
KFL1 251552Z 15004KT 15/M03 A3016 RMK A01 T01451032  RH  029%=      5-min Rain = 0
KFL1 251553Z 14007KT 15/M02 A3016 RMK A01 T01471020  RH  032%=      5-min Rain = 0
KFL1 251554Z 15009KT 15/M03 A3016 RMK A01 T01481030  RH  029%=      5-min Rain = 0
KFL1 251555Z 13007KT 15/M02 A3016 RMK A01 T01481020  RH  031%=      5-min Rain = 0
KFL1 251556Z 14009KT 15/M03 A3016 RMK A01 T01481025  RH  030%=      5-min Rain = 0
KFL1 251557Z 14005KT 15/M04 A3016 RMK A01 T01471041  RH  027%=      5-min Rain = 0
KFL1 251558Z 15005KT 15/M04 A3016 RMK A01 T01461039  RH  028%=      5-min Rain = 0
KFL1 251559Z 20003KT 15/M04 A3016 RMK A01 T01461040  RH  027%=      5-min Rain = 0
KFL1 251600Z 17003KT 15/M04 A3016 RMK A01 T01461037  RH  028%=      5-min Rain = 0
KFL1 251601Z 12004KT 15/M03 A3016 RMK A01 T01481031  RH  029%=      5-min Rain = 0
KFL1 251602Z 10006KT 15/M02 A3016 RMK A01 T01491022  RH  031%=      5-min Rain = 0
KFL1 251603Z 10006KT 15/M01 A3016 RMK A01 T01501014  RH  032%=      5-min Rain = 0
KFL1 251604Z 11004KT 15/M03 A3016 RMK A01 T01511034  RH  028%=      5-min Rain = 0
KFL1 251605Z 11004KT 15/M03 A3016 RMK A01 T01511025  RH  030%=      5-min Rain = 0
KFL1 251606Z 13005KT 15/M03 A3016 RMK A01 T01501027  RH  029%=      5-min Rain = 0
KFL1 251607Z 15004KT 15/M03 A3016 RMK A01 T01491027  RH  030%=      5-min Rain = 0
KFL1 251608Z 13005KT 15/M02 A3016 RMK A01 T01501024  RH  030%=      5-min Rain = 0
KFL1 251609Z 15005KT 15/M04 A3016 RMK A01 T01491035  RH  028%=      5-min Rain = 0
KFL1 251610Z 18007KT 15/M04 A3017 RMK A01 T01491039  RH  027%=      5-min Rain = 0
KFL1 251611Z 18006KT 15/M06 A3017 RMK A01 T01481055  RH  024%=      5-min Rain = 0
KFL1 251612Z 19002KT 15/M05 A3016 RMK A01 T01481050  RH  025%=      5-min Rain = 0
KFL1 251613Z 19005KT 15/M06 A3016 RMK A01 T01491055  RH  024%=      5-min Rain = 0
KFL1 251614Z 18003KT 15/M03 A3016 RMK A01 T01491026  RH  030%=      5-min Rain = 0
KFL1 251615Z 17002KT 15/M03 A3016 RMK A01 T01531025  RH  029%=      5-min Rain = 0
KFL1 251616Z 20004KT 16/M02 A3016 RMK A01 T01571022  RH  029%=      5-min Rain = 0
KFL1 251617Z 20006KT 16/M02 A3016 RMK A01 T01581021  RH  029%=      5-min Rain = 0
KFL1 251618Z 18003KT 16/M01 A3016 RMK A01 T01601009  RH  032%=      5-min Rain = 0
KFL1 251619Z 17004KT 16/M02 A3016 RMK A01 T01621019  RH  029%=      5-min Rain = 0
KFL1 251620Z 16005KT 16/M03 A3016 RMK A01 T01631030  RH  026%=      5-min Rain = 0
KFL1 251621Z 17006KT 16/M04 A3016 RMK A01 T01621037  RH  025%=      5-min Rain = 0
KFL1 251622Z 16008KT 16/M04 A3016 RMK A01 T01591039  RH  025%=      5-min Rain = 0
KFL1 251623Z 17009KT 16/M03 A3016 RMK A01 T01591033  RH  027%=      5-min Rain = 0
KFL1 251624Z 18009KT 16/M05 A3016 RMK A01 T01561053  RH  023%=      5-min Rain = 0
KFL1 251625Z 18005KT 16/M04 A3016 RMK A01 T01551044  RH  025%=      5-min Rain = 0
KFL1 251626Z 15009G14KT 15/M04 A3016 RMK A01 T01541041  RH  026%=      5-min Rain = 0
KFL1 251627Z 15011KT 15/M04 A3016 RMK A01 T01531043  RH  026%=      5-min Rain = 0
KFL1 251628Z 15009KT 15/M04 A3016 RMK A01 T01521040  RH  027%=      5-min Rain = 0
KFL1 251629Z 16008KT 15/M05 A3016 RMK A01 T01521045  RH  025%=      5-min Rain = 0
KFL1 251630Z 15007KT 15/M05 A3016 RMK A01 T01511050  RH  025%=      5-min Rain = 0
KFL1 251631Z 17008KT 15/M04 A3016 RMK A01 T01491040  RH  027%=      5-min Rain = 0
KFL1 251632Z 19008KT 15/M05 A3017 RMK A01 T01521045  RH  025%=      5-min Rain = 0
KFL1 251633Z 17005KT 15/M04 A3016 RMK A01 T01511043  RH  026%=      5-min Rain = 0
KFL1 251634Z 16004KT 15/M02 A3016 RMK A01 T01511015  RH  032%=      5-min Rain = 0
KFL1 251635Z 16007KT 15/M05 A3016 RMK A01 T01541045  RH  025%=      5-min Rain = 0
KFL1 251636Z 16004KT 15/M06 A3016 RMK A01 T01511058  RH  023%=      5-min Rain = 0
KFL1 251637Z 14001KT 15/M06 A3016 RMK A01 T01471058  RH  024%=      5-min Rain = 0
KFL1 251638Z 14001KT 15/M05 A3016 RMK A01 T01461049  RH  026%=      5-min Rain = 0
KFL1 251639Z 12001KT 15/M04 A3016 RMK A01 T01481037  RH  028%=      5-min Rain = 0
KFL1 251640Z 15004KT 15/M01 A3016 RMK A01 T01501014  RH  032%=      5-min Rain = 0
KFL1 251641Z 21009KT 15/M03 A3016 RMK A01 T01541032  RH  028%=      5-min Rain = 0
KFL1 251642Z 20006KT 16/M05 A3016 RMK A01 T01551046  RH  025%=      5-min Rain = 0
KFL1 251643Z 21003KT 15/M04 A3016 RMK A01 T01521041  RH  026%=      5-min Rain = 0
KFL1 251644Z 18003KT 15/M03 A3016 RMK A01 T01511032  RH  028%=      5-min Rain = 0
KFL1 251645Z 21004KT 15/M03 A3017 RMK A01 T01531030  RH  028%=      5-min Rain = 0
KFL1 251646Z 22008KT 16/M03 A3017 RMK A01 T01551028  RH  028%=      5-min Rain = 0
KFL1 251647Z 23009KT 16/M05 A3016 RMK A01 T01551050  RH  024%=      5-min Rain = 0
KFL1 251648Z 23008KT 15/M05 A3016 RMK A01 T01541048  RH  025%=      5-min Rain = 0
KFL1 251649Z 23005KT 15/M04 A3016 RMK A01 T01531041  RH  026%=      5-min Rain = 0
KFL1 251650Z 19004KT 15/M03 A3016 RMK A01 T01531034  RH  028%=      5-min Rain = 0
KFL1 251651Z 20006KT 16/M03 A3016 RMK A01 T01551031  RH  028%=      5-min Rain = 0
KFL1 251652Z 17008KT 16/M05 A3016 RMK A01 T01571050  RH  024%=      5-min Rain = 0
KFL1 251653Z 18006KT 15/M06 A3016 RMK A01 T01541056  RH  023%=      5-min Rain = 0
KFL1 251654Z 19005KT 16/M04 A3016 RMK A01 T01551042  RH  026%=      5-min Rain = 0
KFL1 251655Z 17006KT 16/M04 A3016 RMK A01 T01571038  RH  026%=      5-min Rain = 0
KFL1 251656Z 18007KT 16/M04 A3016 RMK A01 T01571041  RH  025%=      5-min Rain = 0
KFL1 251657Z 19007KT 16/M03 A3016 RMK A01 T01591031  RH  027%=      5-min Rain = 0
KFL1 251658Z 21006KT 16/M04 A3016 RMK A01 T01611038  RH  025%=      5-min Rain = 0
KFL1 251659Z 21005KT 16/M04 A3016 RMK A01 T01591036  RH  026%=      5-min Rain = 0
KFL1 251700Z 22005KT 16/M04 A3016 RMK A01 T01591038  RH  026%=      5-min Rain = 0
KFL1 251701Z 20007KT 16/M02 A3016 RMK A01 T01581018  RH  030%=      5-min Rain = 0
KFL1 251702Z 22009KT 16/M03 A3016 RMK A01 T01611025  RH  028%=      5-min Rain = 0
KFL1 251703Z 20009G14KT 16/M03 A3016 RMK A01 T01591031  RH  027%=      5-min Rain = 0
KFL1 251704Z 21009KT 16/M03 A3016 RMK A01 T01601026  RH  028%=      5-min Rain = 0
KFL1 251705Z 21010KT 16/M03 A3016 RMK A01 T01611029  RH  027%=      5-min Rain = 0
KFL1 251706Z 21012KT 16/M04 A3016 RMK A01 T01601035  RH  026%=      5-min Rain = 0
KFL1 251707Z 22011KT 16/M04 A3016 RMK A01 T01601039  RH  025%=      5-min Rain = 0
KFL1 251708Z 22012KT 16/M04 A3016 RMK A01 T01601036  RH  026%=      5-min Rain = 0
KFL1 251709Z 21009KT 16/M03 A3016 RMK A01 T01591034  RH  026%=      5-min Rain = 0
KFL1 251710Z 22008KT 16/M05 A3016 RMK A01 T01581046  RH  024%=      5-min Rain = 0
KFL1 251711Z 19004KT 16/M05 A3016 RMK A01 T01571054  RH  023%=      5-min Rain = 0
KFL1 251712Z 17003KT 16/M04 A3016 RMK A01 T01551040  RH  026%=      5-min Rain = 0
KFL1 251713Z 16005KT 16/M03 A3016 RMK A01 T01561033  RH  027%=      5-min Rain = 0
KFL1 251714Z 22005KT 16/M05 A3016 RMK A01 T01581045  RH  024%=      5-min Rain = 0
KFL1 251715Z 19009KT 16/M04 A3017 RMK A01 T01581035  RH  026%=      5-min Rain = 0
KFL1 251716Z 17008G13KT 16/M04 A3017 RMK A01 T01611035  RH  026%=      5-min Rain = 0
KFL1 251717Z 22006KT 16/M02 A3017 RMK A01 T01601024  RH  028%=      5-min Rain = 0
KFL1 251718Z 22007KT 16/M01 A3017 RMK A01 T01621008  RH  031%=      5-min Rain = 0
KFL1 251719Z 22007KT 17/M02 A3017 RMK A01 T01651022  RH  028%=      5-min Rain = 0
KFL1 251720Z 23007KT 16/M04 A3017 RMK A01 T01621036  RH  025%=      5-min Rain = 0
KFL1 251721Z 22007KT 16/M03 A3016 RMK A01 T01611029  RH  027%=      5-min Rain = 0
KFL1 251722Z 24006KT 16/M04 A3016 RMK A01 T01591040  RH  025%=      5-min Rain = 0
KFL1 251723Z 23007KT 16/M04 A3016 RMK A01 T01581038  RH  026%=      5-min Rain = 0
KFL1 251724Z 22008KT 16/M03 A3016 RMK A01 T01571027  RH  028%=      5-min Rain = 0
KFL1 251725Z 22010G15KT 16/M04 A3016 RMK A01 T01581035  RH  026%=      5-min Rain = 0
KFL1 251726Z 22012KT 16/M04 A3016 RMK A01 T01561041  RH  025%=      5-min Rain = 0
KFL1 251727Z 20011G16KT 16/M03 A3016 RMK A01 T01561029  RH  028%=      5-min Rain = 0
KFL1 251728Z 21011KT 16/M03 A3017 RMK A01 T01571033  RH  027%=      5-min Rain = 0
KFL1 251729Z 21008KT 16/M04 A3017 RMK A01 T01581040  RH  025%=      5-min Rain = 0
KFL1 251730Z 21006KT 16/M05 A3016 RMK A01 T01571049  RH  024%=      5-min Rain = 0
KFL1 251731Z 22006KT 16/M03 A3016 RMK A01 T01561033  RH  027%=      5-min Rain = 0
KFL1 251732Z 21007G13KT 16/M02 A3017 RMK A01 T01581019  RH  030%=      5-min Rain = 0
KFL1 251733Z 20008G14KT 16/M03 A3017 RMK A01 T01611029  RH  027%=      5-min Rain = 0
KFL1 251734Z 18009KT 16/M04 A3017 RMK A01 T01621035  RH  026%=      5-min Rain = 0
KFL1 251735Z 17007KT 16/M04 A3017 RMK A01 T01631035  RH  026%=      5-min Rain = 0
KFL1 251736Z 16009G14KT 16/M02 A3017 RMK A01 T01641019  RH  029%=      5-min Rain = 0
KFL1 251737Z 14007KT 16/M05 A3017 RMK A01 T01621046  RH  024%=      5-min Rain = 0
KFL1 251738Z 15004KT 16/M04 A3017 RMK A01 T01581036  RH  026%=      5-min Rain = 0
KFL1 251739Z 18002KT 16/M05 A3017 RMK A01 T01561053  RH  023%=      5-min Rain = 0
KFL1 251740Z 22002KT 15/M06 A3017 RMK A01 T01531062  RH  022%=      5-min Rain = 0
KFL1 251741Z 20001KT 15/M06 A3016 RMK A01 T01521063  RH  022%=      5-min Rain = 0
KFL1 251742Z 24005KT 15/M02 A3016 RMK A01 T01511021  RH  031%=      5-min Rain = 0
KFL1 251743Z 20006KT 16/M02 A3016 RMK A01 T01581016  RH  030%=      5-min Rain = 0
KFL1 251744Z 19006KT 16/M02 A3017 RMK A01 T01631018  RH  029%=      5-min Rain = 0
KFL1 251745Z 19007KT 17/M03 A3017 RMK A01 T01661027  RH  027%=      5-min Rain = 0
KFL1 251746Z 21005KT 17/M03 A3017 RMK A01 T01671033  RH  025%=      5-min Rain = 0
KFL1 251747Z 21011KT 17/M02 A3017 RMK A01 T01671024  RH  027%=      5-min Rain = 0
KFL1 251748Z 22008KT 17/M03 A3017 RMK A01 T01671025  RH  027%=      5-min Rain = 0
KFL1 251749Z 23008KT 17/M03 A3017 RMK A01 T01671032  RH  025%=      5-min Rain = 0
KFL1 251750Z 21006KT 17/M03 A3017 RMK A01 T01651026  RH  027%=      5-min Rain = 0
KFL1 251751Z 22007KT 17/M04 A3017 RMK A01 T01651037  RH  025%=      5-min Rain = 0
KFL1 251752Z 22009KT 16/M04 A3017 RMK A01 T01631039  RH  025%=      5-min Rain = 0
KFL1 251753Z 21006KT 16/M05 A3017 RMK A01 T01601045  RH  024%=      5-min Rain = 0
KFL1 251754Z 19006KT 16/M03 A3017 RMK A01 T01611034  RH  026%=      5-min Rain = 0
KFL1 251755Z 19003KT 16/M05 A3017 RMK A01 T01621048  RH  023%=      5-min Rain = 0
KFL1 251756Z 17006KT 16/M04 A3017 RMK A01 T01601037  RH  026%=      5-min Rain = 0
KFL1 251757Z 20011KT 16/M03 A3017 RMK A01 T01631026  RH  027%=      5-min Rain = 0
KFL1 251758Z 20006KT 17/M05 A3017 RMK A01 T01671045  RH  023%=      5-min Rain = 0
KFL1 251759Z 19008KT 17/M05 A3017 RMK A01 T01651046  RH  023%=      5-min Rain = 0
KFL1 251800Z 16009G14KT 16/M04 A3017 RMK A01 T01641042  RH  024%=      5-min Rain = 0
KFL1 251801Z 15002KT 16/M06 A3016 RMK A01 T01621057  RH  022%=      5-min Rain = 0
KFL1 251802Z 15007KT 16/M04 A3016 RMK A01 T01621035  RH  026%=      5-min Rain = 0
KFL1 251803Z 16005KT 16/M04 A3016 RMK A01 T01621043  RH  024%=      5-min Rain = 0
KFL1 251804Z 20005G10KT 16/M05 A3017 RMK A01 T01581051  RH  023%=      5-min Rain = 0
KFL1 251805Z 19006KT 16/M03 A3017 RMK A01 T01591030  RH  027%=      5-min Rain = 0
KFL1 251806Z 19005KT 16/M04 A3016 RMK A01 T01621037  RH  025%=      5-min Rain = 0
KFL1 251807Z 19005KT 16/M02 A3017 RMK A01 T01641022  RH  028%=      5-min Rain = 0
KFL1 251808Z 19010KT 17/M03 A3017 RMK A01 T01681031  RH  026%=      5-min Rain = 0
KFL1 251809Z 20010KT 17/M04 A3017 RMK A01 T01681041  RH  024%=      5-min Rain = 0
KFL1 251810Z 22008KT 17/M04 A3017 RMK A01 T01651038  RH  025%=      5-min Rain = 0
KFL1 251811Z 21007KT 16/M03 A3016 RMK A01 T01641034  RH  026%=      5-min Rain = 0
KFL1 251812Z 21004G10KT 16/M04 A3016 RMK A01 T01641044  RH  024%=      5-min Rain = 0
KFL1 251813Z 16002KT 16/M03 A3016 RMK A01 T01641033  RH  026%=      5-min Rain = 0
KFL1 251814Z 15005KT 17/M04 A3016 RMK A01 T01651035  RH  025%=      5-min Rain = 0
KFL1 251815Z 15005KT 16/M04 A3016 RMK A01 T01631039  RH  025%=      5-min Rain = 0
KFL1 251816Z 19005KT 16/M04 A3016 RMK A01 T01631036  RH  025%=      5-min Rain = 0
KFL1 251817Z 17005KT 16/M03 A3016 RMK A01 T01631025  RH  027%=      5-min Rain = 0
KFL1 251818Z 19011KT 17/M02 A3016 RMK A01 T01681017  RH  028%=      5-min Rain = 0
KFL1 251819Z 21008G13KT 17/M03 A3016 RMK A01 T01701031  RH  025%=      5-min Rain = 0
KFL1 251820Z 18006KT 17/M03 A3016 RMK A01 T01691030  RH  026%=      5-min Rain = 0
KFL1 251821Z 19006KT 17/M03 A3016 RMK A01 T01681026  RH  026%=      5-min Rain = 0
KFL1 251822Z 17007KT 17/M04 A3016 RMK A01 T01691044  RH  023%=      5-min Rain = 0
KFL1 251823Z 18008KT 17/M04 A3016 RMK A01 T01681044  RH  023%=      5-min Rain = 0
KFL1 251824Z 17004KT 16/M05 A3016 RMK A01 T01641049  RH  023%=      5-min Rain = 0
KFL1 251825Z 19004KT 16/M04 A3016 RMK A01 T01641037  RH  025%=      5-min Rain = 0
KFL1 251826Z 17005KT 17/M03 A3016 RMK A01 T01651025  RH  027%=      5-min Rain = 0
KFL1 251827Z 22007G16KT 17/M02 A3016 RMK A01 T01691024  RH  027%=      5-min Rain = 0
KFL1 251828Z 21013KT 17/M03 A3016 RMK A01 T01691030  RH  025%=      5-min Rain = 0
KFL1 251829Z 20012KT 17/M03 A3016 RMK A01 T01691031  RH  025%=      5-min Rain = 0
KFL1 251830Z 18009KT 17/M03 A3016 RMK A01 T01691026  RH  026%=      5-min Rain = 0
KFL1 251831Z 17007KT 17/M04 A3016 RMK A01 T01691035  RH  024%=      5-min Rain = 0
KFL1 251832Z 17005KT 17/M03 A3016 RMK A01 T01701030  RH  025%=      5-min Rain = 0
KFL1 251833Z 16010G15KT 17/M02 A3016 RMK A01 T01681022  RH  027%=      5-min Rain = 0
KFL1 251834Z 18010KT 17/M02 A3016 RMK A01 T01691017  RH  028%=      5-min Rain = 0
KFL1 251835Z 21006KT 17/M03 A3016 RMK A01 T01711034  RH  025%=      5-min Rain = 0
KFL1 251836Z 21003KT 17/M04 A3016 RMK A01 T01701037  RH  024%=      5-min Rain = 0
KFL1 251837Z 21003KT 17/M03 A3016 RMK A01 T01701033  RH  025%=      5-min Rain = 0
KFL1 251838Z 22005KT 17/M03 A3016 RMK A01 T01681030  RH  026%=      5-min Rain = 0
KFL1 251839Z 20004KT 17/M03 A3016 RMK A01 T01681027  RH  026%=      5-min Rain = 0
KFL1 251840Z 17003KT 17/M02 A3016 RMK A01 T01701022  RH  027%=      5-min Rain = 0
KFL1 251841Z 17005G10KT 17/M01 A3016 RMK A01 T01701008  RH  030%=      5-min Rain = 0
KFL1 251842Z 18012KT 17/M01 A3016 RMK A01 T01711014  RH  028%=      5-min Rain = 0
KFL1 251843Z 16006KT 17/M03 A3016 RMK A01 T01731029  RH  025%=      5-min Rain = 0
KFL1 251844Z 19005KT 17/M02 A3016 RMK A01 T01721023  RH  026%=      5-min Rain = 0
KFL1 251845Z 23008KT 17/M03 A3016 RMK A01 T01731027  RH  025%=      5-min Rain = 0
KFL1 251846Z 22005KT 17/M03 A3016 RMK A01 T01711032  RH  025%=      5-min Rain = 0
KFL1 251847Z 24004KT 17/M03 A3016 RMK A01 T01691034  RH  025%=      5-min Rain = 0
KFL1 251848Z 23009G18KT 17/M02 A3015 RMK A01 T01691019  RH  028%=      5-min Rain = 0
KFL1 251849Z 19012KT 17/M02 A3015 RMK A01 T01721022  RH  027%=      5-min Rain = 0
KFL1 251850Z 17008KT 17/M03 A3016 RMK A01 T01721031  RH  025%=      5-min Rain = 0
KFL1 251851Z 16007KT 17/M04 A3016 RMK A01 T01721037  RH  024%=      5-min Rain = 0
KFL1 251852Z 12005KT 17/M05 A3015 RMK A01 T01681054  RH  021%=      5-min Rain = 0
KFL1 251853Z 23008KT 16/M02 A3015 RMK A01 T01641023  RH  028%=      5-min Rain = 0
KFL1 251854Z 25004KT 17/M02 A3016 RMK A01 T01681017  RH  028%=      5-min Rain = 0
KFL1 251855Z 23003KT 17/M04 A3015 RMK A01 T01681042  RH  023%=      5-min Rain = 0
KFL1 251856Z 25006KT 17/M04 A3015 RMK A01 T01671041  RH  024%=      5-min Rain = 0
KFL1 251857Z 22007KT 17/M04 A3015 RMK A01 T01661038  RH  024%=      5-min Rain = 0
KFL1 251858Z 19010KT 17/M03 A3015 RMK A01 T01681031  RH  026%=      5-min Rain = 0
KFL1 251859Z 21006KT 17/M05 A3015 RMK A01 T01701045  RH  023%=      5-min Rain = 0
KFL1 251900Z 20007KT 17/M03 A3015 RMK A01 T01701034  RH  024%=      5-min Rain = 0
KFL1 251901Z 21006KT 17/M05 A3015 RMK A01 T01701049  RH  022%=      5-min Rain = 0
KFL1 251902Z 22009KT 17/M03 A3015 RMK A01 T01711031  RH  025%=      5-min Rain = 0
KFL1 251903Z 23009KT 17/M03 A3015 RMK A01 T01721025  RH  026%=      5-min Rain = 0
KFL1 251904Z 22009KT 17/M03 A3015 RMK A01 T01711033  RH  025%=      5-min Rain = 0
KFL1 251905Z 19008KT 17/M03 A3015 RMK A01 T01701025  RH  026%=      5-min Rain = 0
KFL1 251906Z 18007KT 17/M04 A3015 RMK A01 T01721042  RH  023%=      5-min Rain = 0
KFL1 251907Z 18006KT 17/M05 A3015 RMK A01 T01721045  RH  022%=      5-min Rain = 0
KFL1 251908Z 16005KT 17/M06 A3015 RMK A01 T01711057  RH  020%=      5-min Rain = 0
KFL1 251909Z 14006KT 17/M05 A3015 RMK A01 T01681050  RH  022%=      5-min Rain = 0
KFL1 251910Z 14006KT 17/M05 A3015 RMK A01 T01651047  RH  023%=      5-min Rain = 0
KFL1 251911Z 16005KT 16/M04 A3015 RMK A01 T01621041  RH  025%=      5-min Rain = 0
KFL1 251912Z 18002KT 16/M04 A3015 RMK A01 T01631036  RH  025%=      5-min Rain = 0
KFL1 251913Z 18005G13KT 16/M04 A3015 RMK A01 T01641041  RH  024%=      5-min Rain = 0
KFL1 251914Z 20011KT 17/M04 A3015 RMK A01 T01681035  RH  025%=      5-min Rain = 0
KFL1 251915Z 19012KT 17/M03 A3015 RMK A01 T01731028  RH  025%=      5-min Rain = 0
KFL1 251916Z 19010KT 17/M04 A3015 RMK A01 T01741040  RH  023%=      5-min Rain = 0
KFL1 251917Z 18008G13KT 18/M02 A3015 RMK A01 T01751020  RH  026%=      5-min Rain = 0
KFL1 251918Z 19007KT 18/M03 A3015 RMK A01 T01771034  RH  024%=      5-min Rain = 0
KFL1 251919Z 19005KT 18/M03 A3015 RMK A01 T01771028  RH  025%=      5-min Rain = 0
KFL1 251920Z 21005KT 18/M05 A3015 RMK A01 T01761047  RH  021%=      5-min Rain = 0
KFL1 251921Z 22004KT 17/M05 A3015 RMK A01 T01731046  RH  022%=      5-min Rain = 0
KFL1 251922Z 24003KT 17/M04 A3015 RMK A01 T01711038  RH  024%=      5-min Rain = 0
KFL1 251923Z 18006KT 17/M03 A3015 RMK A01 T01721028  RH  025%=      5-min Rain = 0
KFL1 251924Z 18004KT 18/M01 A3015 RMK A01 T01751011  RH  028%=      5-min Rain = 0
KFL1 251925Z 18010KT 18/M02 A3015 RMK A01 T01801019  RH  026%=      5-min Rain = 0
KFL1 251926Z 19009KT 18/M04 A3015 RMK A01 T01801044  RH  021%=      5-min Rain = 0
KFL1 251927Z 18010KT 18/M05 A3015 RMK A01 T01791046  RH  021%=      5-min Rain = 0
KFL1 251928Z 19006KT 18/M06 A3015 RMK A01 T01771056  RH  020%=      5-min Rain = 0
KFL1 251929Z 17008G13KT 17/M04 A3015 RMK A01 T01741036  RH  024%=      5-min Rain = 0
KFL1 251930Z 17010G15KT 18/M05 A3015 RMK A01 T01751054  RH  020%=      5-min Rain = 0
KFL1 251931Z 19012KT 17/M05 A3014 RMK A01 T01711047  RH  022%=      5-min Rain = 0
KFL1 251932Z 18009G15KT 17/M04 A3015 RMK A01 T01721044  RH  023%=      5-min Rain = 0
KFL1 251933Z 16007KT 17/M04 A3015 RMK A01 T01721038  RH  024%=      5-min Rain = 0
KFL1 251934Z 17007KT 18/M01 A3014 RMK A01 T01761012  RH  028%=      5-min Rain = 0
KFL1 251935Z 19005G12KT 18/M01 A3014 RMK A01 T01791011  RH  027%=      5-min Rain = 0
KFL1 251936Z 18009KT 18/M04 A3015 RMK A01 T01811043  RH  021%=      5-min Rain = 0
KFL1 251937Z 18010KT 18/M05 A3014 RMK A01 T01791048  RH  021%=      5-min Rain = 0
KFL1 251938Z 17006KT 18/M05 A3014 RMK A01 T01761050  RH  021%=      5-min Rain = 0
KFL1 251939Z 19005KT 18/M05 A3014 RMK A01 T01751046  RH  022%=      5-min Rain = 0
KFL1 251940Z 20006KT 18/M03 A3014 RMK A01 T01761027  RH  025%=      5-min Rain = 0
KFL1 251941Z 21006KT 18/M03 A3014 RMK A01 T01791026  RH  025%=      5-min Rain = 0
KFL1 251942Z 20011KT 18/M03 A3014 RMK A01 T01811033  RH  023%=      5-min Rain = 0
KFL1 251943Z 19010KT 18/M04 A3015 RMK A01 T01791038  RH  023%=      5-min Rain = 0
KFL1 251944Z 19007KT 18/M05 A3015 RMK A01 T01771045  RH  022%=      5-min Rain = 0
KFL1 251945Z 21006KT 18/M04 A3015 RMK A01 T01771036  RH  023%=      5-min Rain = 0
KFL1 251946Z 21008KT 18/M05 A3015 RMK A01 T01781049  RH  021%=      5-min Rain = 0
KFL1 251947Z 20004KT 18/M03 A3015 RMK A01 T01751031  RH  024%=      5-min Rain = 0
KFL1 251948Z 19004KT 17/M04 A3015 RMK A01 T01741035  RH  024%=      5-min Rain = 0
KFL1 251949Z 17006KT 18/M01 A3014 RMK A01 T01761014  RH  027%=      5-min Rain = 0
KFL1 251950Z 18007KT 18/M03 A3014 RMK A01 T01801034  RH  023%=      5-min Rain = 0
KFL1 251951Z 18010KT 18/M03 A3014 RMK A01 T01801033  RH  023%=      5-min Rain = 0
KFL1 251952Z 17009KT 18/M04 A3014 RMK A01 T01791038  RH  023%=      5-min Rain = 0
KFL1 251953Z 19009KT 18/M04 A3015 RMK A01 T01781039  RH  023%=      5-min Rain = 0
KFL1 251954Z 20009KT 18/M04 A3015 RMK A01 T01771042  RH  022%=      5-min Rain = 0
KFL1 251955Z 18006KT 18/M04 A3015 RMK A01 T01761040  RH  023%=      5-min Rain = 0
KFL1 251956Z 15005KT 18/M03 A3015 RMK A01 T01771030  RH  024%=      5-min Rain = 0
KFL1 251957Z 16004KT 18/M02 A3014 RMK A01 T01771019  RH  026%=      5-min Rain = 0
KFL1 251958Z 17004KT 18/M03 A3014 RMK A01 T01781027  RH  025%=      5-min Rain = 0
KFL1 251959Z 32002KT 18/M06 A3015 RMK A01 T01771057  RH  020%=      5-min Rain = 0
KFL1 252000Z 34003KT 17/M05 A3014 RMK A01 T01721046  RH  022%=      5-min Rain = 0
KFL1 252001Z 22002KT 17/M06 A3014 RMK A01 T01701063  RH  020%=      5-min Rain = 0
KFL1 252002Z 14003KT 17/M05 A3014 RMK A01 T01671054  RH  022%=      5-min Rain = 0
KFL1 252003Z 14005KT 17/M03 A3014 RMK A01 T01671031  RH  026%=      5-min Rain = 0
KFL1 252004Z 16004KT 17/M06 A3014 RMK A01 T01691055  RH  021%=      5-min Rain = 0
KFL1 252005Z 19005KT 17/M06 A3014 RMK A01 T01671055  RH  021%=      5-min Rain = 0
KFL1 252006Z 22007G14KT 17/M03 A3014 RMK A01 T01691033  RH  025%=      5-min Rain = 0
KFL1 252007Z 24012KT 17/M02 A3014 RMK A01 T01731018  RH  027%=      5-min Rain = 0
KFL1 252008Z 24008KT 18/M03 A3014 RMK A01 T01751030  RH  025%=      5-min Rain = 0
KFL1 252009Z 21005KT 18/M04 A3014 RMK A01 T01761039  RH  023%=      5-min Rain = 0
KFL1 252010Z 20003G11KT 17/M04 A3014 RMK A01 T01731043  RH  023%=      5-min Rain = 0
KFL1 252011Z 23008KT 17/M02 A3014 RMK A01 T01741024  RH  026%=      5-min Rain = 0
KFL1 252012Z 23009KT 18/M03 A3014 RMK A01 T01751032  RH  024%=      5-min Rain = 0
KFL1 252013Z 23007KT 17/M04 A3014 RMK A01 T01741036  RH  024%=      5-min Rain = 0
KFL1 252014Z 24006KT 17/M03 A3014 RMK A01 T01741034  RH  024%=      5-min Rain = 0
KFL1 252015Z 23004KT 18/M03 A3014 RMK A01 T01751028  RH  025%=      5-min Rain = 0
KFL1 252016Z 22006KT 18/M03 A3014 RMK A01 T01761027  RH  025%=      5-min Rain = 0
KFL1 252017Z 23007G12KT 18/M02 A3014 RMK A01 T01781020  RH  026%=      5-min Rain = 0
KFL1 252018Z 23008G14KT 18/M00 A3014 RMK A01 T01811003  RH  029%=      5-min Rain = 0
KFL1 252019Z 22014KT 18/M02 A3014 RMK A01 T01821022  RH  025%=      5-min Rain = 0
KFL1 252020Z 23016KT 18/M04 A3014 RMK A01 T01781043  RH  022%=      5-min Rain = 0
KFL1 252021Z 19012KT 17/M04 A3014 RMK A01 T01731036  RH  024%=      5-min Rain = 0
KFL1 252022Z 17004KT 17/M05 A3014 RMK A01 T01741048  RH  022%=      5-min Rain = 0
KFL1 252023Z 20003KT 17/M06 A3014 RMK A01 T01731060  RH  020%=      5-min Rain = 0
KFL1 252024Z 21006KT 18/M02 A3014 RMK A01 T01761017  RH  027%=      5-min Rain = 0
KFL1 252025Z 21009KT 18/M01 A3014 RMK A01 T01791014  RH  027%=      5-min Rain = 0
KFL1 252026Z 22006KT 18/M04 A3014 RMK A01 T01821038  RH  022%=      5-min Rain = 0
KFL1 252027Z 19006KT 18/M04 A3014 RMK A01 T01821036  RH  023%=      5-min Rain = 0
KFL1 252028Z 23005KT 18/M03 A3013 RMK A01 T01801031  RH  024%=      5-min Rain = 0
KFL1 252029Z 22005G11KT 18/M02 A3013 RMK A01 T01811019  RH  026%=      5-min Rain = 0
KFL1 252030Z 21008KT 18/M01 A3013 RMK A01 T01841009  RH  027%=      5-min Rain = 0
KFL1 252031Z 21008KT 19/M01 A3013 RMK A01 T01881010  RH  026%=      5-min Rain = 0
KFL1 252032Z 22005KT 19/M01 A3013 RMK A01 T01871011  RH  026%=      5-min Rain = 0
KFL1 252033Z 20010KT 19/M02 A3013 RMK A01 T01881019  RH  025%=      5-min Rain = 0
KFL1 252034Z 20009KT 19/M04 A3014 RMK A01 T01861044  RH  021%=      5-min Rain = 0
KFL1 252035Z 19006KT 18/M04 A3013 RMK A01 T01841035  RH  022%=      5-min Rain = 0
KFL1 252036Z 23005G11KT 18/M02 A3013 RMK A01 T01821022  RH  025%=      5-min Rain = 0
KFL1 252037Z 24008KT 18/M04 A3013 RMK A01 T01821043  RH  021%=      5-min Rain = 0
KFL1 252038Z 24009KT 18/M04 A3013 RMK A01 T01801044  RH  021%=      5-min Rain = 0
KFL1 252039Z 26007KT 18/M06 A3013 RMK A01 T01751057  RH  020%=      5-min Rain = 0
KFL1 252040Z 23005KT 17/M05 A3013 RMK A01 T01721051  RH  021%=      5-min Rain = 0
KFL1 252041Z 20010KT 17/M04 A3013 RMK A01 T01731041  RH  023%=      5-min Rain = 0
KFL1 252042Z 19009KT 17/M04 A3013 RMK A01 T01731037  RH  024%=      5-min Rain = 0
KFL1 252043Z 20011KT 18/M03 A3013 RMK A01 T01771025  RH  025%=      5-min Rain = 0
KFL1 252044Z 18007KT 18/M04 A3013 RMK A01 T01771037  RH  023%=      5-min Rain = 0
KFL1 252045Z 20006KT 18/M04 A3013 RMK A01 T01771035  RH  023%=      5-min Rain = 0
KFL1 252046Z 21005KT 18/M03 A3013 RMK A01 T01771031  RH  024%=      5-min Rain = 0
KFL1 252047Z 18005KT 18/M01 A3013 RMK A01 T01791013  RH  027%=      5-min Rain = 0
KFL1 252048Z 22007KT 18/M03 A3013 RMK A01 T01811030  RH  024%=      5-min Rain = 0
KFL1 252049Z 22008KT 18/M02 A3013 RMK A01 T01801023  RH  025%=      5-min Rain = 0
KFL1 252050Z 19009KT 18/M01 A3013 RMK A01 T01821005  RH  028%=      5-min Rain = 0
KFL1 252051Z 20006KT 19/M01 A3013 RMK A01 T01851009  RH  027%=      5-min Rain = 0
KFL1 252052Z 21006KT 19/M01 A3013 RMK A01 T01861011  RH  026%=      5-min Rain = 0
KFL1 252053Z 21006KT 19/M02 A3013 RMK A01 T01871024  RH  024%=      5-min Rain = 0
KFL1 252054Z 22004KT 19/M04 A3013 RMK A01 T01871041  RH  021%=      5-min Rain = 0
KFL1 252055Z 25005KT 18/M04 A3013 RMK A01 T01831044  RH  021%=      5-min Rain = 0
KFL1 252056Z 26005KT 18/M03 A3013 RMK A01 T01801032  RH  023%=      5-min Rain = 0
KFL1 252057Z 24005KT 18/M03 A3013 RMK A01 T01801028  RH  024%=      5-min Rain = 0
KFL1 252058Z 23007KT 18/M03 A3013 RMK A01 T01801025  RH  025%=      5-min Rain = 0
KFL1 252059Z 23006KT 18/M04 A3013 RMK A01 T01801035  RH  023%=      5-min Rain = 0
KFL1 252100Z 25004KT 18/M03 A3013 RMK A01 T01811031  RH  023%=      5-min Rain = 0
KFL1 252101Z 27004KT 18/M03 A3013 RMK A01 T01801031  RH  024%=      5-min Rain = 0
KFL1 252102Z 29003KT 18/M04 A3013 RMK A01 T01781044  RH  022%=      5-min Rain = 0
KFL1 252103Z 30004KT 18/M03 A3013 RMK A01 T01771034  RH  023%=      5-min Rain = 0
KFL1 252104Z 33003KT 18/M05 A3013 RMK A01 T01751049  RH  021%=      5-min Rain = 0
KFL1 252105Z 35004KT 17/M06 A3012 RMK A01 T01711056  RH  021%=      5-min Rain = 0
KFL1 252106Z 25007KT 17/M03 A3012 RMK A01 T01701027  RH  026%=      5-min Rain = 0
KFL1 252107Z 20009G15KT 17/M02 A3012 RMK A01 T01731015  RH  028%=      5-min Rain = 0
KFL1 252108Z 24009G16KT 18/M02 A3012 RMK A01 T01791015  RH  027%=      5-min Rain = 0
KFL1 252109Z 23013KT 18/M01 A3012 RMK A01 T01801013  RH  027%=      5-min Rain = 0
KFL1 252110Z 23010KT 18/M02 A3013 RMK A01 T01811023  RH  025%=      5-min Rain = 0
KFL1 252111Z 21012KT 18/M02 A3013 RMK A01 T01811015  RH  026%=      5-min Rain = 0
KFL1 252112Z 20008KT 18/M02 A3013 RMK A01 T01821023  RH  025%=      5-min Rain = 0
KFL1 252113Z 22010KT 18/M01 A3013 RMK A01 T01831014  RH  026%=      5-min Rain = 0
KFL1 252114Z 22009KT 18/M03 A3013 RMK A01 T01841028  RH  024%=      5-min Rain = 0
KFL1 252115Z 23007KT 18/M03 A3013 RMK A01 T01831025  RH  024%=      5-min Rain = 0
KFL1 252116Z 22006KT 19/M01 A3013 RMK A01 T01851007  RH  027%=      5-min Rain = 0
KFL1 252117Z 22006KT 19/M03 A3013 RMK A01 T01851025  RH  024%=      5-min Rain = 0
KFL1 252118Z 20006KT 19/M04 A3013 RMK A01 T01851039  RH  022%=      5-min Rain = 0
KFL1 252119Z 22004KT 18/M04 A3013 RMK A01 T01821042  RH  021%=      5-min Rain = 0
KFL1 252120Z 21005KT 18/M04 A3013 RMK A01 T01801041  RH  022%=      5-min Rain = 0
KFL1 252121Z 19004KT 18/M04 A3013 RMK A01 T01801040  RH  022%=      5-min Rain = 0
KFL1 252122Z 19006KT 18/M03 A3013 RMK A01 T01801028  RH  024%=      5-min Rain = 0
KFL1 252123Z 17002KT 18/M02 A3013 RMK A01 T01821020  RH  025%=      5-min Rain = 0
KFL1 252124Z 18003KT 18/M05 A3013 RMK A01 T01821047  RH  021%=      5-min Rain = 0
KFL1 252125Z 20004KT 18/M05 A3013 RMK A01 T01781052  RH  020%=      5-min Rain = 0
KFL1 252126Z 19008KT 18/M03 A3013 RMK A01 T01771032  RH  024%=      5-min Rain = 0
KFL1 252127Z 20006G11KT 18/M03 A3013 RMK A01 T01781031  RH  024%=      5-min Rain = 0
KFL1 252128Z 22004KT 18/M03 A3012 RMK A01 T01811034  RH  023%=      5-min Rain = 0
KFL1 252129Z 24004KT 18/M03 A3012 RMK A01 T01801026  RH  025%=      5-min Rain = 0
KFL1 252130Z 24004KT 18/M03 A3012 RMK A01 T01821026  RH  024%=      5-min Rain = 0
KFL1 252131Z 25003KT 18/M03 A3012 RMK A01 T01821032  RH  023%=      5-min Rain = 0
KFL1 252132Z 22003KT 18/M03 A3012 RMK A01 T01821026  RH  024%=      5-min Rain = 0
KFL1 252133Z 23006G12KT 18/M03 A3012 RMK A01 T01831026  RH  024%=      5-min Rain = 0
KFL1 252134Z 21007KT 19/M01 A3012 RMK A01 T01851006  RH  028%=      5-min Rain = 0
KFL1 252135Z 21005KT 19/M02 A3012 RMK A01 T01881015  RH  025%=      5-min Rain = 0
KFL1 252136Z 18004KT 19/M02 A3012 RMK A01 T01891022  RH  024%=      5-min Rain = 0
KFL1 252137Z 18004KT 19/M03 A3012 RMK A01 T01881034  RH  022%=      5-min Rain = 0
KFL1 252138Z 19002KT 19/M03 A3012 RMK A01 T01881025  RH  024%=      5-min Rain = 0
KFL1 252139Z 15001KT 19/M04 A3012 RMK A01 T01861035  RH  022%=      5-min Rain = 0
KFL1 252140Z 23002KT 19/M03 A3012 RMK A01 T01851031  RH  023%=      5-min Rain = 0
KFL1 252141Z 24002KT 19/M03 A3012 RMK A01 T01861032  RH  023%=      5-min Rain = 0
KFL1 252142Z 23004KT 19/M04 A3012 RMK A01 T01851042  RH  021%=      5-min Rain = 0
KFL1 252143Z 22005KT 19/M03 A3012 RMK A01 T01851030  RH  023%=      5-min Rain = 0
KFL1 252144Z 21008KT 19/M03 A3012 RMK A01 T01871034  RH  022%=      5-min Rain = 0
KFL1 252145Z 22003KT 19/M06 A3011 RMK A01 T01851059  RH  018%=      5-min Rain = 0
KFL1 252146Z 31001KT 18/M05 A3011 RMK A01 T01831046  RH  021%=      5-min Rain = 0
KFL1 252147Z 23004G11KT 18/M05 A3011 RMK A01 T01831046  RH  021%=      5-min Rain = 0
KFL1 252148Z 20008KT 19/M03 A3011 RMK A01 T01851027  RH  024%=      5-min Rain = 0
KFL1 252149Z 17009KT 19/M02 A3011 RMK A01 T01881021  RH  024%=      5-min Rain = 0
KFL1 252150Z 17007KT 19/M04 A3011 RMK A01 T01901039  RH  021%=      5-min Rain = 0
KFL1 252151Z 19007KT 19/M03 A3011 RMK A01 T01881031  RH  023%=      5-min Rain = 0
KFL1 252152Z 18009KT 19/M05 A3011 RMK A01 T01891046  RH  020%=      5-min Rain = 0
KFL1 252153Z 20010KT 19/M03 A3011 RMK A01 T01871032  RH  022%=      5-min Rain = 0
KFL1 252154Z 21011KT 19/M03 A3012 RMK A01 T01881034  RH  022%=      5-min Rain = 0
KFL1 252155Z 23006KT 19/M05 A3012 RMK A01 T01871051  RH  019%=      5-min Rain = 0
KFL1 252156Z 19005KT 19/M05 A3011 RMK A01 T01861054  RH  019%=      5-min Rain = 0
KFL1 252157Z 20007KT 18/M05 A3011 RMK A01 T01841052  RH  020%=      5-min Rain = 0
KFL1 252158Z 20003KT 18/M05 A3011 RMK A01 T01841048  RH  020%=      5-min Rain = 0
KFL1 252159Z 18004KT 19/M03 A3011 RMK A01 T01851033  RH  023%=      5-min Rain = 0
KFL1 252200Z 19008KT 19/M03 A3011 RMK A01 T01881032  RH  022%=      5-min Rain = 0
KFL1 252201Z 18005KT 19/M04 A3011 RMK A01 T01881040  RH  021%=      5-min Rain = 0
KFL1 252202Z 18006KT 19/M05 A3011 RMK A01 T01891048  RH  020%=      5-min Rain = 0
KFL1 252203Z 14004KT 19/M06 A3011 RMK A01 T01871055  RH  019%=      5-min Rain = 0
KFL1 252204Z 19005KT 18/M05 A3011 RMK A01 T01841045  RH  021%=      5-min Rain = 0
KFL1 252205Z 20006KT 19/M02 A3011 RMK A01 T01851023  RH  024%=      5-min Rain = 0
KFL1 252206Z 20008KT 19/M02 A3011 RMK A01 T01901022  RH  024%=      5-min Rain = 0
KFL1 252207Z 20006KT 19/M03 A3011 RMK A01 T01901026  RH  023%=      5-min Rain = 0
KFL1 252208Z 18009KT 19/M04 A3011 RMK A01 T01911038  RH  021%=      5-min Rain = 0
KFL1 252209Z 18009KT 19/M03 A3011 RMK A01 T01911028  RH  023%=      5-min Rain = 0
KFL1 252210Z 19007KT 19/M05 A3011 RMK A01 T01901045  RH  020%=      5-min Rain = 0
KFL1 252211Z 20006KT 19/M05 A3011 RMK A01 T01901048  RH  020%=      5-min Rain = 0
KFL1 252212Z 19003KT 19/M06 A3011 RMK A01 T01871058  RH  018%=      5-min Rain = 0
KFL1 252213Z 22003KT 19/M04 A3011 RMK A01 T01861035  RH  022%=      5-min Rain = 0
KFL1 252214Z 24002KT 19/M03 A3011 RMK A01 T01871032  RH  022%=      5-min Rain = 0
KFL1 252215Z 20002KT 19/M03 A3011 RMK A01 T01891029  RH  023%=      5-min Rain = 0
KFL1 252216Z 16005KT 19/M06 A3011 RMK A01 T01881062  RH  018%=      5-min Rain = 0
KFL1 252217Z 19005KT 19/M05 A3011 RMK A01 T01861054  RH  019%=      5-min Rain = 0
KFL1 252218Z 23007KT 18/M04 A3011 RMK A01 T01841038  RH  022%=      5-min Rain = 0
KFL1 252219Z 21009KT 19/M03 A3011 RMK A01 T01861029  RH  023%=      5-min Rain = 0
KFL1 252220Z 21008KT 19/M02 A3011 RMK A01 T01891019  RH  024%=      5-min Rain = 0
KFL1 252221Z 20007KT 19/M04 A3011 RMK A01 T01911040  RH  021%=      5-min Rain = 0
KFL1 252222Z 23004G9KT 19/M03 A3011 RMK A01 T01911026  RH  023%=      5-min Rain = 0
KFL1 252223Z 20007KT 19/M03 A3011 RMK A01 T01921030  RH  022%=      5-min Rain = 0
KFL1 252224Z 19004KT 19/M05 A3011 RMK A01 T01921047  RH  019%=      5-min Rain = 0
KFL1 252225Z 24006KT 19/M05 A3011 RMK A01 T01901049  RH  019%=      5-min Rain = 0
KFL1 252226Z 23005KT 19/M05 A3011 RMK A01 T01891045  RH  020%=      5-min Rain = 0
KFL1 252227Z 21010G18KT 19/M04 A3011 RMK A01 T01891035  RH  022%=      5-min Rain = 0
KFL1 252228Z 21014KT 19/M04 A3011 RMK A01 T01901036  RH  021%=      5-min Rain = 0
KFL1 252229Z 23010G15KT 19/M03 A3011 RMK A01 T01891029  RH  023%=      5-min Rain = 0
KFL1 252230Z 21008KT 19/M03 A3011 RMK A01 T01901028  RH  023%=      5-min Rain = 0
KFL1 252231Z 18007KT 19/M04 A3011 RMK A01 T01901043  RH  020%=      5-min Rain = 0
KFL1 252232Z 21005KT 19/M04 A3011 RMK A01 T01921036  RH  021%=      5-min Rain = 0
KFL1 252233Z 19008KT 19/M03 A3011 RMK A01 T01911028  RH  022%=      5-min Rain = 0
KFL1 252234Z 21010KT 19/M04 A3011 RMK A01 T01921042  RH  020%=      5-min Rain = 0
KFL1 252235Z 21013KT 19/M04 A3011 RMK A01 T01911041  RH  020%=      5-min Rain = 0
KFL1 252236Z 22008KT 19/M05 A3011 RMK A01 T01891054  RH  019%=      5-min Rain = 0
KFL1 252237Z 20005KT 19/M03 A301 RMK A01 T01881033  RH  022%=      5-min Rain = 0
KFL1 252238Z 19007G13KT 19/M03 A301 RMK A01 T01901030  RH  022%=      5-min Rain = 0
KFL1 252239Z 20009G15KT 19/M03 A3011 RMK A01 T01921033  RH  021%=      5-min Rain = 0
KFL1 252240Z 20008KT 19/M04 A301 RMK A01 T01941040  RH  020%=      5-min Rain = 0
KFL1 252241Z 19013G18KT 19/M03 A3011 RMK A01 T01941034  RH  021%=      5-min Rain = 0
KFL1 252242Z 19011G16KT 19/M04 A301 RMK A01 T01931036  RH  021%=      5-min Rain = 0
KFL1 252243Z 19013KT 19/M05 A301 RMK A01 T01921051  RH  019%=      5-min Rain = 0
KFL1 252244Z 19012KT 19/M05 A3011 RMK A01 T01901054  RH  019%=      5-min Rain = 0
KFL1 252245Z 19010KT 19/M06 A301 RMK A01 T01871064  RH  018%=      5-min Rain = 0
KFL1 252246Z 19009KT 19/M05 A301 RMK A01 T01871054  RH  019%=      5-min Rain = 0
KFL1 252247Z 21008G13KT 19/M04 A301 RMK A01 T01881038  RH  021%=      5-min Rain = 0
KFL1 252248Z 20010KT 19/M04 A301 RMK A01 T01901044  RH  020%=      5-min Rain = 0
KFL1 252249Z 20009G14KT 19/M05 A301 RMK A01 T01901051  RH  019%=      5-min Rain = 0
KFL1 252250Z 19004KT 19/M04 A301 RMK A01 T01901043  RH  020%=      5-min Rain = 0
KFL1 252251Z 20007KT 19/M05 A301 RMK A01 T01921053  RH  019%=      5-min Rain = 0
KFL1 252252Z 20007KT 19/M04 A301 RMK A01 T01931043  RH  020%=      5-min Rain = 0
KFL1 252253Z 17006G13KT 19/M03 A301 RMK A01 T01931027  RH  023%=      5-min Rain = 0
KFL1 252254Z 18009KT 19/M04 A301 RMK A01 T01931044  RH  020%=      5-min Rain = 0
KFL1 252255Z 20006KT 19/M04 A301 RMK A01 T01931037  RH  021%=      5-min Rain = 0
KFL1 252256Z 21007KT 19/M04 A301 RMK A01 T01931037  RH  021%=      5-min Rain = 0
KFL1 252257Z 24010KT 19/M03 A301 RMK A01 T01931025  RH  023%=      5-min Rain = 0
KFL1 252258Z 23012KT 19/M03 A301 RMK A01 T01931032  RH  022%=      5-min Rain = 0
KFL1 252259Z 22009KT 19/M04 A301 RMK A01 T01931036  RH  021%=      5-min Rain = 0
KFL1 252300Z 21006G11KT 19/M01 A301 RMK A01 T01931014  RH  025%=      5-min Rain = 0
KFL1 252301Z 21010KT 19/M03 A301 RMK A01 T01941029  RH  022%=      5-min Rain = 0
KFL1 252302Z 21014KT 19/M03 A301 RMK A01 T01941031  RH  021%=      5-min Rain = 0
KFL1 252303Z 21016KT 19/M04 A301 RMK A01 T01941042  RH  020%=      5-min Rain = 0
KFL1 252304Z 21015KT 19/M05 A301 RMK A01 T01931045  RH  020%=      5-min Rain = 0
KFL1 252305Z 19012KT 19/M04 A301 RMK A01 T01921043  RH  020%=      5-min Rain = 0
KFL1 252306Z 19010KT 19/M05 A301 RMK A01 T01901046  RH  020%=      5-min Rain = 0
KFL1 252307Z 18009KT 19/M05 A301 RMK A01 T01911046  RH  020%=      5-min Rain = 0
KFL1 252308Z 19015KT 19/M05 A3009 RMK A01 T01881049  RH  020%=      5-min Rain = 0
KFL1 252309Z 21013KT 19/M05 A301 RMK A01 T01891050  RH  019%=      5-min Rain = 0
KFL1 252310Z 23009KT 19/M05 A301 RMK A01 T01881047  RH  020%=      5-min Rain = 0
KFL1 252311Z 23007KT 19/M02 A301 RMK A01 T01881021  RH  024%=      5-min Rain = 0
KFL1 252312Z 21008KT 19/M02 A301 RMK A01 T01901020  RH  024%=      5-min Rain = 0
KFL1 252313Z 21014KT 19/M04 A301 RMK A01 T01921035  RH  021%=      5-min Rain = 0
KFL1 252314Z 22011G17KT 19/M05 A301 RMK A01 T01911052  RH  019%=      5-min Rain = 0
KFL1 252315Z 21011G16KT 19/M04 A301 RMK A01 T01901043  RH  020%=      5-min Rain = 0
KFL1 252316Z 21015KT 19/M05 A301 RMK A01 T01901048  RH  020%=      5-min Rain = 0
KFL1 252317Z 21013G18KT 19/M06 A301 RMK A01 T01891059  RH  018%=      5-min Rain = 0
KFL1 252318Z 21011G17KT 19/M06 A3009 RMK A01 T01871055  RH  019%=      5-min Rain = 0
KFL1 252319Z 22012G19KT 19/M04 A301 RMK A01 T01891037  RH  021%=      5-min Rain = 0
KFL1 252320Z 22015G20KT 19/M05 A301 RMK A01 T01881050  RH  020%=      5-min Rain = 0
KFL1 252321Z 20013G20KT 19/M06 A301 RMK A01 T01881061  RH  018%=      5-min Rain = 0
KFL1 252322Z 19009KT 19/M05 A3009 RMK A01 T01871053  RH  019%=      5-min Rain = 0
KFL1 252323Z 17007KT 19/M04 A3009 RMK A01 T01861040  RH  021%=      5-min Rain = 0
KFL1 252324Z 18009KT 19/M05 A3009 RMK A01 T01871052  RH  019%=      5-min Rain = 0
KFL1 252325Z 18010KT 19/M06 A3009 RMK A01 T01881061  RH  018%=      5-min Rain = 0
KFL1 252326Z 19008KT 19/M06 A3009 RMK A01 T01881058  RH  018%=      5-min Rain = 0
KFL1 252327Z 20010KT 19/M05 A3009 RMK A01 T01871045  RH  020%=      5-min Rain = 0
KFL1 252328Z 20014G19KT 19/M04 A3009 RMK A01 T01881044  RH  020%=      5-min Rain = 0
KFL1 252329Z 18010KT 19/M05 A3009 RMK A01 T01901046  RH  020%=      5-min Rain = 0
KFL1 252330Z 19008G13KT 19/M05 A3009 RMK A01 T01891051  RH  019%=      5-min Rain = 0
KFL1 252331Z 19011KT 19/M05 A3009 RMK A01 T01871053  RH  019%=      5-min Rain = 0
KFL1 252332Z 19009KT 19/M06 A3009 RMK A01 T01881059  RH  018%=      5-min Rain = 0
KFL1 252333Z 20006KT 19/M05 A3009 RMK A01 T01881051  RH  019%=      5-min Rain = 0
KFL1 252334Z 19008KT 19/M05 A3009 RMK A01 T01871047  RH  020%=      5-min Rain = 0
KFL1 252335Z 20010KT 19/M05 A3009 RMK A01 T01881047  RH  020%=      5-min Rain = 0
KFL1 252336Z 21013KT 19/M05 A3009 RMK A01 T01871054  RH  019%=      5-min Rain = 0
KFL1 252337Z 21013KT 19/M05 A3009 RMK A01 T01871051  RH  019%=      5-min Rain = 0
KFL1 252338Z 20009KT 19/M05 A3009 RMK A01 T01861050  RH  020%=      5-min Rain = 0
KFL1 252339Z 19010G15KT 19/M05 A3009 RMK A01 T01861050  RH  020%=      5-min Rain = 0
KFL1 252340Z 21009KT 19/M05 A3009 RMK A01 T01871052  RH  019%=      5-min Rain = 0
KFL1 252341Z 20010KT 19/M04 A3009 RMK A01 T01861044  RH  021%=      5-min Rain = 0
KFL1 252342Z 20009KT 19/M05 A3009 RMK A01 T01861050  RH  020%=      5-min Rain = 0
KFL1 252343Z 21010KT 19/M05 A3009 RMK A01 T01861053  RH  019%=      5-min Rain = 0
KFL1 252344Z 22009KT 19/M06 A3009 RMK A01 T01851057  RH  019%=      5-min Rain = 0
KFL1 252345Z 22007G12KT 19/M06 A3009 RMK A01 T01861057  RH  019%=      5-min Rain = 0
KFL1 252346Z 22011KT 19/M06 A3009 RMK A01 T01851058  RH  019%=      5-min Rain = 0
KFL1 252347Z 22009KT 19/M05 A3008 RMK A01 T01851050  RH  020%=      5-min Rain = 0
KFL1 252348Z 23008KT 19/M04 A3008 RMK A01 T01851040  RH  021%=      5-min Rain = 0
KFL1 252349Z 23010KT 19/M04 A3008 RMK A01 T01861039  RH  021%=      5-min Rain = 0
KFL1 252350Z 23007KT 18/M05 A3008 RMK A01 T01841053  RH  020%=      5-min Rain = 0
KFL1 252351Z 23007KT 19/M04 A3008 RMK A01 T01851044  RH  021%=      5-min Rain = 0
KFL1 252352Z 20006KT 19/M04 A3008 RMK A01 T01851043  RH  021%=      5-min Rain = 0
KFL1 252353Z 21008KT 19/M05 A3008 RMK A01 T01861047  RH  020%=      5-min Rain = 0
KFL1 252354Z 21011KT 19/M05 A3008 RMK A01 T01861052  RH  019%=      5-min Rain = 0
KFL1 252355Z 21009KT 19/M04 A3008 RMK A01 T01871039  RH  021%=      5-min Rain = 0
KFL1 252356Z 20007KT 19/M03 A3008 RMK A01 T01881033  RH  022%=      5-min Rain = 0
KFL1 252357Z 20006KT 19/M04 A3008 RMK A01 T01881043  RH  021%=      5-min Rain = 0
KFL1 252358Z 20008KT 19/M04 A3008 RMK A01 T01871044  RH  021%=      5-min Rain = 0
KFL1 252359Z 21008KT 19/M04 A3008 RMK A01 T01871042  RH  021%=      5-min Rain = 0
KFL1 260000Z 20007KT 19/M05 A3008 RMK A01 T01871051  RH  019%=      5-min Rain = 0
KFL1 260001Z 18006KT 19/M06 A3008 RMK A01 T01871062  RH  018%=      5-min Rain = 0
KFL1 260002Z 21008KT 19/M05 A3008 RMK A01 T01861050  RH  020%=      5-min Rain = 0
KFL1 260003Z 22008KT 19/M04 A3008 RMK A01 T01871042  RH  021%=      5-min Rain = 0
KFL1 260004Z 24009KT 19/M04 A3008 RMK A01 T01871041  RH  021%=      5-min Rain = 0
KFL1 260005Z 25008KT 19/M03 A3008 RMK A01 T01881034  RH  022%=      5-min Rain = 0
KFL1 260006Z 24008KT 19/M04 A3008 RMK A01 T01851036  RH  022%=      5-min Rain = 0
KFL1 260007Z 24007KT 19/M05 A3008 RMK A01 T01851046  RH  021%=      5-min Rain = 0
KFL1 260008Z 20007KT 18/M03 A3008 RMK A01 T01841034  RH  022%=      5-min Rain = 0
KFL1 260009Z 17005KT 18/M04 A3008 RMK A01 T01841035  RH  022%=      5-min Rain = 0
KFL1 260010Z 18009KT 19/M05 A3008 RMK A01 T01851052  RH  020%=      5-min Rain = 0
KFL1 260011Z 18006KT 19/M07 A3008 RMK A01 T01851066  RH  018%=      5-min Rain = 0
KFL1 260012Z 20008KT 18/M06 A3008 RMK A01 T01841064  RH  018%=      5-min Rain = 0
KFL1 260013Z 19009KT 19/M06 A3008 RMK A01 T01851059  RH  018%=      5-min Rain = 0
KFL1 260014Z 18007KT 18/M06 A3008 RMK A01 T01831062  RH  018%=      5-min Rain = 0
KFL1 260015Z 21006KT 18/M05 A3008 RMK A01 T01841047  RH  020%=      5-min Rain = 0
KFL1 260016Z 18006KT 18/M05 A3008 RMK A01 T01841045  RH  021%=      5-min Rain = 0
KFL1 260017Z 17006KT 18/M05 A3008 RMK A01 T01841046  RH  021%=      5-min Rain = 0
KFL1 260018Z 18007KT 19/M05 A3008 RMK A01 T01851050  RH  020%=      5-min Rain = 0
KFL1 260019Z 17007KT 18/M07 A3008 RMK A01 T01831067  RH  018%=      5-min Rain = 0
KFL1 260020Z 19007KT 18/M06 A3008 RMK A01 T01811060  RH  019%=      5-min Rain = 0
KFL1 260021Z 19009KT 18/M07 A3008 RMK A01 T01821065  RH  018%=      5-min Rain = 0
KFL1 260022Z 19008KT 18/M06 A3008 RMK A01 T01821062  RH  018%=      5-min Rain = 0
KFL1 260023Z 20007KT 18/M06 A3008 RMK A01 T01821058  RH  019%=      5-min Rain = 0
KFL1 260024Z 21006KT 18/M04 A3008 RMK A01 T01821044  RH  021%=      5-min Rain = 0
KFL1 260025Z 21008KT 18/M04 A3008 RMK A01 T01821043  RH  021%=      5-min Rain = 0
KFL1 260026Z 22006KT 18/M05 A3008 RMK A01 T01831051  RH  020%=      5-min Rain = 0
KFL1 260027Z 19006KT 18/M06 A3008 RMK A01 T01831055  RH  019%=      5-min Rain = 0
KFL1 260028Z 16005KT 18/M04 A3008 RMK A01 T01841039  RH  022%=      5-min Rain = 0
KFL1 260029Z 19007KT 18/M05 A3008 RMK A01 T01841046  RH  021%=      5-min Rain = 0
KFL1 260030Z 19008KT 18/M06 A3008 RMK A01 T01821057  RH  019%=      5-min Rain = 0
KFL1 260031Z 18008KT 18/M07 A3008 RMK A01 T01811070  RH  017%=      5-min Rain = 0
KFL1 260032Z 19007KT 18/M07 A3008 RMK A01 T01811071  RH  017%=      5-min Rain = 0
KFL1 260033Z 17003KT 18/M07 A3008 RMK A01 T01801073  RH  017%=      5-min Rain = 0
KFL1 260034Z 21003KT 18/M07 A3008 RMK A01 T01811067  RH  018%=      5-min Rain = 0
KFL1 260035Z 17002KT 18/M05 A3008 RMK A01 T01811048  RH  021%=      5-min Rain = 0
KFL1 260036Z 15004KT 18/M05 A3008 RMK A01 T01811050  RH  020%=      5-min Rain = 0
KFL1 260037Z 14005KT 18/M05 A3008 RMK A01 T01811054  RH  020%=      5-min Rain = 0
KFL1 260038Z 14007KT 18/M05 A3008 RMK A01 T01791053  RH  020%=      5-min Rain = 0
KFL1 260039Z 15005KT 18/M05 A3008 RMK A01 T01771048  RH  021%=      5-min Rain = 0
KFL1 260040Z 15006KT 18/M05 A3008 RMK A01 T01771054  RH  020%=      5-min Rain = 0
KFL1 260041Z 16005KT 18/M05 A3008 RMK A01 T01761050  RH  021%=      5-min Rain = 0
KFL1 260042Z 18006KT 18/M06 A3008 RMK A01 T01761058  RH  020%=      5-min Rain = 0
KFL1 260043Z 16004KT 18/M06 A3008 RMK A01 T01761063  RH  019%=      5-min Rain = 0
KFL1 260044Z 16004KT 18/M06 A3008 RMK A01 T01771063  RH  019%=      5-min Rain = 0
KFL1 260045Z 15004KT 18/M06 A3008 RMK A01 T01781058  RH  020%=      5-min Rain = 0
KFL1 260046Z 17004KT 18/M05 A3008 RMK A01 T01781047  RH  021%=      5-min Rain = 0
KFL1 260047Z 18005KT 18/M05 A3008 RMK A01 T01791052  RH  020%=      5-min Rain = 0
KFL1 260048Z 19005KT 18/M06 A3008 RMK A01 T01781056  RH  020%=      5-min Rain = 0
KFL1 260049Z 20005KT 18/M05 A3008 RMK A01 T01801049  RH  021%=      5-min Rain = 0
KFL1 260050Z 21006KT 18/M05 A3008 RMK A01 T01791054  RH  020%=      5-min Rain = 0
KFL1 260051Z 21005KT 18/M06 A3008 RMK A01 T01811061  RH  019%=      5-min Rain = 0
KFL1 260052Z 21003KT 18/M06 A3008 RMK A01 T01811061  RH  019%=      5-min Rain = 0
KFL1 260053Z 19002KT 18/M05 A3008 RMK A01 T01821049  RH  020%=      5-min Rain = 0
KFL1 260054Z 18003KT 18/M05 A3008 RMK A01 T01821048  RH  021%=      5-min Rain = 0
KFL1 260055Z 17003KT 18/M05 A3008 RMK A01 T01831051  RH  020%=      5-min Rain = 0
KFL1 260056Z 18004KT 18/M05 A3008 RMK A01 T01811049  RH  021%=      5-min Rain = 0
KFL1 260057Z 19003KT 18/M06 A3008 RMK A01 T01801061  RH  019%=      5-min Rain = 0
KFL1 260058Z 20003KT 18/M05 A3008 RMK A01 T01811046  RH  021%=      5-min Rain = 0
KFL1 260059Z 19004KT 18/M05 A3008 RMK A01 T01811048  RH  021%=      5-min Rain = 0
KFL1 260100Z 20003KT 18/M06 A3008 RMK A01 T01801064  RH  018%=      5-min Rain = 0
KFL1 260101Z 22004KT 18/M06 A3008 RMK A01 T01811055  RH  019%=      5-min Rain = 0
KFL1 260102Z 21004KT 18/M06 A3008 RMK A01 T01821062  RH  018%=      5-min Rain = 0
KFL1 260103Z 20004KT 18/M05 A3008 RMK A01 T01811046  RH  021%=      5-min Rain = 0
KFL1 260104Z 21005KT 18/M05 A3008 RMK A01 T01791051  RH  020%=      5-min Rain = 0
KFL1 260105Z 23004KT 18/M04 A3007 RMK A01 T01811042  RH  022%=      5-min Rain = 0
KFL1 260106Z 23003KT 18/M04 A3007 RMK A01 T01801035  RH  023%=      5-min Rain = 0
KFL1 260107Z 23004KT 18/M03 A3007 RMK A01 T01791032  RH  023%=      5-min Rain = 0
KFL1 260108Z 22005KT 18/M02 A3007 RMK A01 T01791015  RH  027%=      5-min Rain = 0
KFL1 260109Z 21003KT 18/M04 A3007 RMK A01 T01771035  RH  023%=      5-min Rain = 0
KFL1 260110Z 21002KT 18/M04 A3007 RMK A01 T01771039  RH  023%=      5-min Rain = 0
KFL1 260111Z 19002KT 18/M04 A3007 RMK A01 T01761041  RH  022%=      5-min Rain = 0
KFL1 260112Z 18005KT 18/M05 A3007 RMK A01 T01781045  RH  022%=      5-min Rain = 0
KFL1 260113Z 19005KT 18/M06 A3007 RMK A01 T01761055  RH  020%=      5-min Rain = 0
KFL1 260114Z 19004KT 18/M06 A3007 RMK A01 T01761056  RH  020%=      5-min Rain = 0
KFL1 260115Z 20003KT 18/M04 A3007 RMK A01 T01771043  RH  022%=      5-min Rain = 0
KFL1 260116Z 22003KT 17/M05 A3007 RMK A01 T01741048  RH  022%=      5-min Rain = 0
KFL1 260117Z 23003KT 18/M04 A3007 RMK A01 T01751043  RH  022%=      5-min Rain = 0
KFL1 260118Z 22004KT 18/M04 A3007 RMK A01 T01761043  RH  022%=      5-min Rain = 0
KFL1 260119Z 22003KT 18/M03 A3007 RMK A01 T01751030  RH  025%=      5-min Rain = 0
KFL1 260120Z 20005KT 17/M03 A3007 RMK A01 T01741032  RH  024%=      5-min Rain = 0
KFL1 260121Z 20003KT 17/M04 A3007 RMK A01 T01741042  RH  023%=      5-min Rain = 0
KFL1 260122Z 18004KT 17/M04 A3007 RMK A01 T01741041  RH  023%=      5-min Rain = 0
KFL1 260123Z 19004KT 17/M04 A3007 RMK A01 T01731044  RH  022%=      5-min Rain = 0
KFL1 260124Z 18004KT 17/M05 A3007 RMK A01 T01731045  RH  022%=      5-min Rain = 0
KFL1 260125Z 17003KT 17/M06 A3007 RMK A01 T01721058  RH  020%=      5-min Rain = 0
KFL1 260126Z 18004KT 17/M07 A3007 RMK A01 T01711065  RH  019%=      5-min Rain = 0
KFL1 260127Z 20005KT 17/M06 A3007 RMK A01 T01721064  RH  019%=      5-min Rain = 0
KFL1 260128Z 19004KT 17/M07 A3007 RMK A01 T01721068  RH  019%=      5-min Rain = 0
KFL1 260129Z 21003KT 17/M06 A3007 RMK A01 T01701063  RH  020%=      5-min Rain = 0
KFL1 260130Z 22004KT 17/M05 A3007 RMK A01 T01711048  RH  022%=      5-min Rain = 0
KFL1 260131Z 22005KT 17/M04 A3007 RMK A01 T01701041  RH  023%=      5-min Rain = 0
KFL1 260132Z 21005KT 17/M04 A3007 RMK A01 T01701036  RH  024%=      5-min Rain = 0
KFL1 260133Z 21005KT 17/M04 A3007 RMK A01 T01691035  RH  025%=      5-min Rain = 0
KFL1 260134Z 21005KT 17/M04 A3007 RMK A01 T01661036  RH  025%=      5-min Rain = 0
KFL1 260135Z 21004KT 17/M04 A3007 RMK A01 T01661039  RH  024%=      5-min Rain = 0
KFL1 260136Z 22005KT 16/M03 A3007 RMK A01 T01631031  RH  026%=      5-min Rain = 0
KFL1 260137Z 22004KT 16/M03 A3007 RMK A01 T01601025  RH  028%=      5-min Rain = 0
KFL1 260138Z 22006KT 16/M02 A3008 RMK A01 T01581015  RH  031%=      5-min Rain = 0
KFL1 260139Z 22005KT 16/M03 A3008 RMK A01 T01561026  RH  028%=      5-min Rain = 0
KFL1 260140Z 22004KT 16/M03 A3008 RMK A01 T01551029  RH  028%=      5-min Rain = 0
KFL1 260141Z 22005KT 16/M03 A3008 RMK A01 T01571025  RH  029%=      5-min Rain = 0
KFL1 260142Z 22003KT 16/M03 A3008 RMK A01 T01551033  RH  027%=      5-min Rain = 0
KFL1 260143Z 22003KT 16/M03 A3008 RMK A01 T01551029  RH  028%=      5-min Rain = 0
KFL1 260144Z 22002KT 16/M03 A3008 RMK A01 T01551028  RH  028%=      5-min Rain = 0
KFL1 260145Z 23003KT 15/M03 A3008 RMK A01 T01541032  RH  028%=      5-min Rain = 0
KFL1 260146Z 23003KT 16/M03 A3008 RMK A01 T01551028  RH  028%=      5-min Rain = 0
KFL1 260147Z 23002KT 15/M03 A3008 RMK A01 T01541026  RH  029%=      5-min Rain = 0
KFL1 260148Z 23003KT 15/M02 A3008 RMK A01 T01541017  RH  031%=      5-min Rain = 0
KFL1 260149Z 24004KT 15/M02 A3008 RMK A01 T01531021  RH  030%=      5-min Rain = 0
KFL1 260150Z 24003KT 15/M02 A3008 RMK A01 T01541018  RH  031%=      5-min Rain = 0
KFL1 260151Z 23005KT 15/M02 A3008 RMK A01 T01531021  RH  030%=      5-min Rain = 0
KFL1 260152Z 24005KT 15/M02 A3008 RMK A01 T01541023  RH  030%=      5-min Rain = 0
KFL1 260153Z 24004KT 15/M02 A3008 RMK A01 T01531023  RH  030%=      5-min Rain = 0
KFL1 260154Z 24004KT 15/M02 A3008 RMK A01 T01501023  RH  030%=      5-min Rain = 0
KFL1 260155Z 24004KT 15/M03 A3008 RMK A01 T01491026  RH  030%=      5-min Rain = 0
KFL1 260156Z 24005KT 15/M03 A3008 RMK A01 T01491025  RH  030%=      5-min Rain = 0
KFL1 260157Z 24005KT 15/M03 A3008 RMK A01 T01481025  RH  030%=      5-min Rain = 0
KFL1 260158Z 24005KT 15/M03 A3008 RMK A01 T01471028  RH  030%=      5-min Rain = 0
KFL1 260159Z 25005KT 15/M03 A3008 RMK A01 T01461028  RH  030%=      5-min Rain = 0
KFL1 260200Z 25005KT 15/M02 A3008 RMK A01 T01461023  RH  031%=      5-min Rain = 0
KFL1 260201Z 26005KT 15/M02 A3008 RMK A01 T01451022  RH  032%=      5-min Rain = 0
KFL1 260202Z 26005KT 14/M03 A3008 RMK A01 T01431026  RH  031%=      5-min Rain = 0
KFL1 260203Z 26004KT 14/M03 A3008 RMK A01 T01431028  RH  031%=      5-min Rain = 0
KFL1 260204Z 27004KT 14/M03 A3008 RMK A01 T01421030  RH  030%=      5-min Rain = 0
KFL1 260205Z 27004KT 14/M03 A3008 RMK A01 T01421027  RH  031%=      5-min Rain = 0
KFL1 260206Z 27004KT 14/M03 A3008 RMK A01 T01411033  RH  030%=      5-min Rain = 0
KFL1 260207Z 26004KT 14/M03 A3008 RMK A01 T01411030  RH  031%=      5-min Rain = 0
KFL1 260208Z 27003KT 14/M02 A3008 RMK A01 T01411019  RH  033%=      5-min Rain = 0
KFL1 260209Z 27004KT 14/M02 A3008 RMK A01 T01381016  RH  034%=      5-min Rain = 0
KFL1 260210Z 26004KT 14/M01 A3008 RMK A01 T01361014  RH  036%=      5-min Rain = 0
KFL1 260211Z 27003KT 14/M02 A3008 RMK A01 T01361018  RH  035%=      5-min Rain = 0
KFL1 260212Z 27003KT 13/M02 A3008 RMK A01 T01341017  RH  035%=      5-min Rain = 0
KFL1 260213Z 27003KT 13/M03 A3008 RMK A01 T01321032  RH  032%=      5-min Rain = 0
KFL1 260214Z 27004KT 13/M03 A3008 RMK A01 T01341027  RH  033%=      5-min Rain = 0
KFL1 260215Z 27004KT 13/M03 A3008 RMK A01 T01341030  RH  032%=      5-min Rain = 0
KFL1 260216Z 27003KT 13/M04 A3008 RMK A01 T01341036  RH  031%=      5-min Rain = 0
KFL1 260217Z 28003KT 14/M04 A3008 RMK A01 T01351037  RH  030%=      5-min Rain = 0
KFL1 260218Z 28004KT 14/M04 A3008 RMK A01 T01351040  RH  029%=      5-min Rain = 0
KFL1 260219Z 28004KT 14/M04 A3008 RMK A01 T01351040  RH  029%=      5-min Rain = 0
KFL1 260220Z 28004KT 14/M04 A3008 RMK A01 T01361040  RH  029%=      5-min Rain = 0
KFL1 260221Z 28004KT 14/M04 A3008 RMK A01 T01351042  RH  029%=      5-min Rain = 0
KFL1 260222Z 28004KT 14/M04 A3008 RMK A01 T01371041  RH  029%=      5-min Rain = 0
KFL1 260223Z 29004KT 14/M04 A3008 RMK A01 T01351035  RH  030%=      5-min Rain = 0
KFL1 260224Z 29004KT 13/M03 A3008 RMK A01 T01331028  RH  033%=      5-min Rain = 0
KFL1 260225Z 29004KT 13/M03 A3008 RMK A01 T01291027  RH  034%=      5-min Rain = 0
KFL1 260226Z 29004KT 12/M02 A3008 RMK A01 T01231017  RH  038%=      5-min Rain = 0
KFL1 260227Z 29004KT 12/M01 A3008 RMK A01 T01171014  RH  040%=      5-min Rain = 0
KFL1 260228Z 29004KT 11/M02 A3008 RMK A01 T01141017  RH  040%=      5-min Rain = 0
KFL1 260229Z 29004KT 11/M02 A3008 RMK A01 T01111022  RH  040%=      5-min Rain = 0
KFL1 260230Z 29004KT 11/M01 A3008 RMK A01 T01111014  RH  042%=      5-min Rain = 0
KFL1 260231Z 30004KT 11/M02 A3008 RMK A01 T01081015  RH  042%=      5-min Rain = 0
KFL1 260232Z 31003KT 11/M01 A3008 RMK A01 T01061012  RH  044%=      5-min Rain = 0
KFL1 260233Z 31004KT 10/01 A3008 RMK A01 T01020009  RH  053%=      5-min Rain = 0
KFL1 260234Z 31004KT 09/02 A3008 RMK A01 T00900017  RH  060%=      5-min Rain = 0
KFL1 260235Z 31004KT 08/02 A3008 RMK A01 T00810016  RH  064%=      5-min Rain = 0
KFL1 260236Z 32004KT 08/02 A3008 RMK A01 T00760015  RH  065%=      5-min Rain = 0
KFL1 260237Z 32004KT 07/02 A3008 RMK A01 T00710016  RH  068%=      5-min Rain = 0
KFL1 260238Z 31004KT 07/02 A3008 RMK A01 T00670015  RH  069%=      5-min Rain = 0
KFL1 260239Z 31004KT 07/01 A3008 RMK A01 T00660014  RH  069%=      5-min Rain = 0
KFL1 260240Z 31004KT 07/01 A3008 RMK A01 T00660014  RH  070%=      5-min Rain = 0
KFL1 260241Z 32004KT 06/02 A3008 RMK A01 T00640015  RH  071%=      5-min Rain = 0
KFL1 260242Z 32004KT 06/02 A3008 RMK A01 T00620015  RH  072%=      5-min Rain = 0
KFL1 260243Z 32004KT 06/02 A3008 RMK A01 T00610015  RH  073%=      5-min Rain = 0
KFL1 260244Z 32004KT 06/02 A3008 RMK A01 T00610016  RH  073%=      5-min Rain = 0
KFL1 260245Z 33004KT 06/02 A3008 RMK A01 T00600016  RH  074%=      5-min Rain = 0
KFL1 260246Z 32004KT 06/01 A3008 RMK A01 T00590014  RH  073%=      5-min Rain = 0
KFL1 260247Z 33004KT 06/01 A3008 RMK A01 T00600011  RH  071%=      5-min Rain = 0
KFL1 260248Z 33004KT 06/01 A3008 RMK A01 T00620005  RH  067%=      5-min Rain = 0
KFL1 260249Z 33004KT 07/00 A3008 RMK A01 T00660001  RH  063%=      5-min Rain = 0
KFL1 260250Z 33004KT 07/00 A3008 RMK A01 T00690002  RH  063%=      5-min Rain = 0
KFL1 260251Z 33004KT 07/M00 A3008 RMK A01 T00691002  RH  061%=      5-min Rain = 0
KFL1 260252Z 34004KT 07/M00 A3008 RMK A01 T00721002  RH  060%=      5-min Rain = 0
KFL1 260253Z 34004KT 07/M00 A3008 RMK A01 T00721001  RH  060%=      5-min Rain = 0
KFL1 260254Z 34004KT 07/M00 A3008 RMK A01 T00741003  RH  058%=      5-min Rain = 0
KFL1 260255Z 34004KT 08/M00 A3008 RMK A01 T00751004  RH  057%=      5-min Rain = 0
KFL1 260256Z 34004KT 08/M01 A3008 RMK A01 T00761005  RH  057%=      5-min Rain = 0
KFL1 260257Z 34004KT 08/M00 A3008 RMK A01 T00761002  RH  058%=      5-min Rain = 0
KFL1 260258Z 33004KT 07/00 A3008 RMK A01 T00740004  RH  061%=      5-min Rain = 0
KFL1 260259Z 33004KT 07/01 A3008 RMK A01 T00680008  RH  066%=      5-min Rain = 0
KFL1 260300Z 34004KT 07/01 A3008 RMK A01 T00650006  RH  066%=      5-min Rain = 0
KFL1 260301Z 34004KT 06/00 A3008 RMK A01 T00640003  RH  065%=      5-min Rain = 0
KFL1 260302Z 33004KT 06/00 A3008 RMK A01 T00630001  RH  064%=      5-min Rain = 0
KFL1 260303Z 34004KT 07/M00 A3008 RMK A01 T00651002  RH  062%=      5-min Rain = 0
KFL1 260304Z 34004KT 07/M00 A3008 RMK A01 T00671001  RH  062%=      5-min Rain = 0
KFL1 260305Z 34004KT 07/M00 A3008 RMK A01 T00691001  RH  061%=      5-min Rain = 0
KFL1 260306Z 34004KT 07/M01 A3009 RMK A01 T00701005  RH  059%=      5-min Rain = 0
KFL1 260307Z 34004KT 07/M01 A3009 RMK A01 T00731008  RH  057%=      5-min Rain = 0
KFL1 260308Z 34004KT 07/M01 A3009 RMK A01 T00741009  RH  056%=      5-min Rain = 0
KFL1 260309Z 35004KT 07/M01 A3009 RMK A01 T00741007  RH  056%=      5-min Rain = 0
KFL1 260310Z 00004KT 07/M01 A3009 RMK A01 T00741010  RH  055%=      5-min Rain = 0
KFL1 260311Z 01005KT 08/M02 A3009 RMK A01 T00751015  RH  053%=      5-min Rain = 0
KFL1 260312Z 02004KT 08/M02 A3009 RMK A01 T00771023  RH  049%=      5-min Rain = 0
KFL1 260313Z 03004KT 08/M03 A3009 RMK A01 T00821027  RH  046%=      5-min Rain = 0
KFL1 260314Z 03005KT 08/M03 A3009 RMK A01 T00841029  RH  045%=      5-min Rain = 0
KFL1 260315Z 03005KT 09/M02 A3009 RMK A01 T00851021  RH  047%=      5-min Rain = 0
KFL1 260316Z 03005KT 08/M01 A3009 RMK A01 T00821014  RH  051%=      5-min Rain = 0
KFL1 260317Z 02005KT 08/M01 A3009 RMK A01 T00781009  RH  054%=      5-min Rain = 0
KFL1 260318Z 02006KT 08/M01 A3009 RMK A01 T00751010  RH  054%=      5-min Rain = 0
KFL1 260319Z 01006KT 07/M01 A3009 RMK A01 T00731010  RH  055%=      5-min Rain = 0
KFL1 260320Z 01006KT 07/M01 A3009 RMK A01 T00721009  RH  056%=      5-min Rain = 0
KFL1 260321Z 01006KT 07/M01 A3009 RMK A01 T00701007  RH  058%=      5-min Rain = 0
KFL1 260322Z 01006KT 07/M01 A301 RMK A01 T00691006  RH  059%=      5-min Rain = 0
KFL1 260323Z 01006KT 07/M01 A301 RMK A01 T00661005  RH  060%=      5-min Rain = 0
KFL1 260324Z 01006KT 07/M00 A301 RMK A01 T00651004  RH  062%=      5-min Rain = 0
KFL1 260325Z 01006KT 06/M00 A301 RMK A01 T00621002  RH  064%=      5-min Rain = 0
KFL1 260326Z 01005KT 06/00 A301 RMK A01 T00600001  RH  066%=      5-min Rain = 0
KFL1 260327Z 01006KT 06/00 A301 RMK A01 T00570001  RH  067%=      5-min Rain = 0
KFL1 260328Z 01006KT 06/M00 A301 RMK A01 T00551001  RH  068%=      5-min Rain = 0
KFL1 260329Z 01006KT 05/M00 A301 RMK A01 T00541001  RH  067%=      5-min Rain = 0
KFL1 260330Z 01006KT 05/M00 A301 RMK A01 T00541002  RH  067%=      5-min Rain = 0
KFL1 260331Z 02007KT 06/M01 A301 RMK A01 T00551005  RH  065%=      5-min Rain = 0
KFL1 260332Z 02007KT 06/M01 A301 RMK A01 T00571009  RH  063%=      5-min Rain = 0
KFL1 260333Z 03005KT 06/M01 A301 RMK A01 T00591011  RH  061%=      5-min Rain = 0
KFL1 260334Z 03005KT 06/M02 A301 RMK A01 T00631015  RH  058%=      5-min Rain = 0
KFL1 260335Z 03006KT 07/M01 A301 RMK A01 T00651014  RH  057%=      5-min Rain = 0
KFL1 260336Z 03006KT 07/M01 A301 RMK A01 T00661012  RH  057%=      5-min Rain = 0
KFL1 260337Z 03005KT 07/M02 A301 RMK A01 T00671020  RH  054%=      5-min Rain = 0
KFL1 260338Z 03005KT 07/M02 A301 RMK A01 T00691019  RH  054%=      5-min Rain = 0
KFL1 260339Z 03005KT 07/M02 A301 RMK A01 T00711015  RH  054%=      5-min Rain = 0
KFL1 260340Z 03005KT 07/M01 A301 RMK A01 T00701013  RH  056%=      5-min Rain = 0
KFL1 260341Z 03005KT 07/M02 A301 RMK A01 T00691015  RH  055%=      5-min Rain = 0
KFL1 260342Z 03005KT 07/M02 A301 RMK A01 T00671016  RH  056%=      5-min Rain = 0
KFL1 260343Z 03005KT 07/M02 A301 RMK A01 T00671017  RH  055%=      5-min Rain = 0
KFL1 260344Z 03005KT 07/M02 A301 RMK A01 T00671016  RH  055%=      5-min Rain = 0
KFL1 260345Z 03005KT 07/M01 A301 RMK A01 T00681014  RH  056%=      5-min Rain = 0
KFL1 260346Z 03005KT 07/M01 A301 RMK A01 T00661011  RH  058%=      5-min Rain = 0
KFL1 260347Z 03005KT 06/M01 A301 RMK A01 T00621009  RH  060%=      5-min Rain = 0
KFL1 260348Z 02005KT 06/M01 A301 RMK A01 T00601011  RH  060%=      5-min Rain = 0
KFL1 260349Z 02005KT 06/M01 A301 RMK A01 T00601009  RH  061%=      5-min Rain = 0
KFL1 260350Z 02006KT 06/M01 A301 RMK A01 T00591009  RH  062%=      5-min Rain = 0
KFL1 260351Z 02007KT 06/M01 A301 RMK A01 T00571007  RH  063%=      5-min Rain = 0
KFL1 260352Z 02007KT 06/M01 A301 RMK A01 T00551005  RH  065%=      5-min Rain = 0
KFL1 260353Z 02007KT 05/M01 A301 RMK A01 T00541005  RH  066%=      5-min Rain = 0
KFL1 260354Z 02008KT 05/M01 A301 RMK A01 T00531006  RH  066%=      5-min Rain = 0
KFL1 260355Z 02007KT 05/M00 A3011 RMK A01 T00541004  RH  066%=      5-min Rain = 0
KFL1 260356Z 02006KT 05/M01 A3011 RMK A01 T00531007  RH  066%=      5-min Rain = 0
KFL1 260357Z 03006KT 05/M01 A3011 RMK A01 T00541008  RH  065%=      5-min Rain = 0
KFL1 260358Z 02007KT 06/M01 A3011 RMK A01 T00551007  RH  064%=      5-min Rain = 0
KFL1 260359Z 02006KT 06/M01 A3011 RMK A01 T00561007  RH  064%=      5-min Rain = 0
KFL1 260400Z 03005KT 06/M01 A3011 RMK A01 T00561007  RH  064%=      5-min Rain = 0
KFL1 260401Z 02005KT 06/M01 A3011 RMK A01 T00561007  RH  064%=      5-min Rain = 0
KFL1 260402Z 02005KT 06/M01 A3011 RMK A01 T00561013  RH  061%=      5-min Rain = 0
KFL1 260403Z 02005KT 06/M02 A3011 RMK A01 T00601022  RH  056%=      5-min Rain = 0
KFL1 260404Z 00004KT 06/M02 A3011 RMK A01 T00631024  RH  054%=      5-min Rain = 0
KFL1 260405Z 36004KT 07/M02 A3011 RMK A01 T00671022  RH  053%=      5-min Rain = 0
KFL1 260406Z 35004KT 07/M02 A3011 RMK A01 T00681016  RH  055%=      5-min Rain = 0
KFL1 260407Z 00003KT 07/M02 A3011 RMK A01 T00671018  RH  054%=      5-min Rain = 0
KFL1 260408Z 02004KT 07/M02 A3011 RMK A01 T00681018  RH  055%=      5-min Rain = 0
KFL1 260409Z 01004KT 07/M03 A3011 RMK A01 T00681026  RH  051%=      5-min Rain = 0
KFL1 260410Z 01004KT 07/M02 A3011 RMK A01 T00701018  RH  054%=      5-min Rain = 0
KFL1 260411Z 01004KT 07/M01 A3011 RMK A01 T00671013  RH  057%=      5-min Rain = 0
KFL1 260412Z 01004KT 06/M01 A3011 RMK A01 T00641008  RH  060%=      5-min Rain = 0
KFL1 260413Z 01004KT 06/M01 A3011 RMK A01 T00591010  RH  061%=      5-min Rain = 0
KFL1 260414Z 00005KT 06/M01 A3011 RMK A01 T00571008  RH  063%=      5-min Rain = 0
KFL1 260415Z 35003KT 05/M01 A3011 RMK A01 T00531012  RH  063%=      5-min Rain = 0
KFL1 260416Z 36002KT 05/M02 A3011 RMK A01 T00541017  RH  060%=      5-min Rain = 0
KFL1 260417Z 00003KT 06/M03 A3011 RMK A01 T00601026  RH  054%=      5-min Rain = 0
KFL1 260418Z 35003KT 07/M03 A3011 RMK A01 T00661028  RH  051%=      5-min Rain = 0
KFL1 260419Z 34003KT 07/M02 A3011 RMK A01 T00681018  RH  054%=      5-min Rain = 0
KFL1 260420Z 00003KT 07/M02 A3011 RMK A01 T00671015  RH  056%=      5-min Rain = 0
KFL1 260421Z 36004KT 07/M02 A3011 RMK A01 T00651019  RH  055%=      5-min Rain = 0
KFL1 260422Z 33003KT 07/M02 A3011 RMK A01 T00651023  RH  054%=      5-min Rain = 0
KFL1 260423Z 32003KT 07/M02 A3012 RMK A01 T00671024  RH  052%=      5-min Rain = 0
KFL1 260424Z 33002KT 07/M03 A3012 RMK A01 T00691026  RH  051%=      5-min Rain = 0
KFL1 260425Z 35003KT 07/M02 A3012 RMK A01 T00701021  RH  052%=      5-min Rain = 0
KFL1 260426Z 00003KT 07/M03 A3012 RMK A01 T00701026  RH  050%=      5-min Rain = 0
KFL1 260427Z 01004KT 07/M03 A3012 RMK A01 T00691028  RH  050%=      5-min Rain = 0
KFL1 260428Z 00004KT 07/M03 A3012 RMK A01 T00701027  RH  050%=      5-min Rain = 0
KFL1 260429Z 01004KT 07/M02 A3012 RMK A01 T00691020  RH  053%=      5-min Rain = 0
KFL1 260430Z 02005KT 07/M03 A3012 RMK A01 T00671027  RH  051%=      5-min Rain = 0
KFL1 260431Z 04004KT 07/M04 A3012 RMK A01 T00671036  RH  048%=      5-min Rain = 0
KFL1 260432Z 03004KT 07/M04 A3012 RMK A01 T00691037  RH  047%=      5-min Rain = 0
KFL1 260433Z 03004KT 07/M03 A3012 RMK A01 T00711033  RH  047%=      5-min Rain = 0
KFL1 260434Z 03004KT 07/M02 A3012 RMK A01 T00681021  RH  053%=      5-min Rain = 0
KFL1 260435Z 03004KT 06/M02 A3012 RMK A01 T00631017  RH  056%=      5-min Rain = 0
KFL1 260436Z 03004KT 06/M02 A3012 RMK A01 T00601019  RH  057%=      5-min Rain = 0
KFL1 260437Z 03005KT 06/M02 A3012 RMK A01 T00581021  RH  057%=      5-min Rain = 0
KFL1 260438Z 04004KT 06/M02 A3013 RMK A01 T00581024  RH  056%=      5-min Rain = 0
KFL1 260439Z 03005KT 06/M03 A3013 RMK A01 T00591025  RH  055%=      5-min Rain = 0
KFL1 260440Z 03005KT 06/M03 A3013 RMK A01 T00611032  RH  051%=      5-min Rain = 0
KFL1 260441Z 02004KT 07/M04 A3013 RMK A01 T00651035  RH  049%=      5-min Rain = 0
KFL1 260442Z 03004KT 07/M04 A3013 RMK A01 T00681035  RH  048%=      5-min Rain = 0
KFL1 260443Z 02005KT 07/M02 A3013 RMK A01 T00681022  RH  053%=      5-min Rain = 0
KFL1 260444Z 03005KT 06/M02 A3013 RMK A01 T00641016  RH  057%=      5-min Rain = 0
KFL1 260445Z 03005KT 06/M03 A3013 RMK A01 T00591027  RH  054%=      5-min Rain = 0
KFL1 260446Z 03005KT 06/M03 A3013 RMK A01 T00621029  RH  052%=      5-min Rain = 0
KFL1 260447Z 02005KT 06/M03 A3013 RMK A01 T00631028  RH  052%=      5-min Rain = 0
KFL1 260448Z 03005KT 06/M03 A3013 RMK A01 T00641030  RH  051%=      5-min Rain = 0
KFL1 260449Z 02005KT 07/M03 A3013 RMK A01 T00651033  RH  050%=      5-min Rain = 0
KFL1 260450Z 01004KT 07/M03 A3013 RMK A01 T00661034  RH  049%=      5-min Rain = 0
KFL1 260451Z 36004KT 07/M04 A3013 RMK A01 T00681035  RH  048%=      5-min Rain = 0
KFL1 260452Z 36005KT 07/M03 A3013 RMK A01 T00691032  RH  049%=      5-min Rain = 0
KFL1 260453Z 34004KT 07/M03 A3013 RMK A01 T00681027  RH  051%=      5-min Rain = 0
KFL1 260454Z 32003KT 07/M03 A3013 RMK A01 T00671029  RH  050%=      5-min Rain = 0
KFL1 260455Z 32003KT 07/M03 A3013 RMK A01 T00671026  RH  051%=      5-min Rain = 0
KFL1 260456Z 29003KT 07/M03 A3013 RMK A01 T00661028  RH  051%=      5-min Rain = 0
KFL1 260457Z 31003KT 07/M04 A3013 RMK A01 T00691035  RH  048%=      5-min Rain = 0
KFL1 260458Z 29003KT 07/M03 A3012 RMK A01 T00711026  RH  050%=      5-min Rain = 0
KFL1 260459Z 28003KT 07/M03 A3012 RMK A01 T00691025  RH  051%=      5-min Rain = 0

Page generated in 0.1212 seconds.